<?xml version="1.0" encoding="UTF-8" standalone="no" ?>
<gpx xmlns="http://www.topografix.com/GPX/1/1" xmlns:xsi="http://www.w3.org/2001/XMLSchema-instance" xsi:schemaLocation="http://www.topografix.com/GPX/1/1 http://www.topografix.com/GPX/1/1/gpx.xsd" version="1.1" creator="VisuGPX - https://www.visugpx.com">
  <metadata>
    <name>belle rando raquette vosges</name>
    <desc><![CDATA[Trace AlpineQuest 16/02/2018 11:57:53]]></desc>
  </metadata>
  <trk>
    <name><![CDATA[schlucht hohneck]]></name>
    <trkseg>
      <trkpt lat="48.06384" lon="7.02352">
        <ele>1144.0100097656</ele>
        <time>2018-02-16T10:57:53Z</time>
      </trkpt>
      <trkpt lat="48.06377" lon="7.02346">
        <ele>1140.0090332031</ele>
        <time>2018-02-16T10:58:33Z</time>
      </trkpt>
      <trkpt lat="48.06374" lon="7.02335">
        <ele>1139.0090332031</ele>
        <time>2018-02-16T10:58:42Z</time>
      </trkpt>
      <trkpt lat="48.06371" lon="7.02325">
        <ele>1140.0090332031</ele>
        <time>2018-02-16T10:58:50Z</time>
      </trkpt>
      <trkpt lat="48.06372" lon="7.02313">
        <ele>1140.0090332031</ele>
        <time>2018-02-16T10:58:57Z</time>
      </trkpt>
      <trkpt lat="48.06375" lon="7.02303">
        <ele>1140.0090332031</ele>
        <time>2018-02-16T10:59:04Z</time>
      </trkpt>
      <trkpt lat="48.06374" lon="7.02291">
        <ele>1141.0090332031</ele>
        <time>2018-02-16T10:59:11Z</time>
      </trkpt>
      <trkpt lat="48.06372" lon="7.02281">
        <ele>1141.0090332031</ele>
        <time>2018-02-16T10:59:28Z</time>
      </trkpt>
      <trkpt lat="48.06368" lon="7.02272">
        <ele>1140.0090332031</ele>
        <time>2018-02-16T10:59:36Z</time>
      </trkpt>
      <trkpt lat="48.06361" lon="7.02267">
        <ele>1141.0090332031</ele>
        <time>2018-02-16T10:59:47Z</time>
      </trkpt>
      <trkpt lat="48.06354" lon="7.02263">
        <ele>1140.0090332031</ele>
        <time>2018-02-16T10:59:55Z</time>
      </trkpt>
      <trkpt lat="48.06346" lon="7.02262">
        <ele>1138.0090332031</ele>
        <time>2018-02-16T11:00:08Z</time>
      </trkpt>
      <trkpt lat="48.06339" lon="7.02263">
        <ele>1141.0090332031</ele>
        <time>2018-02-16T11:00:25Z</time>
      </trkpt>
      <trkpt lat="48.06333" lon="7.0227">
        <ele>1143.0090332031</ele>
        <time>2018-02-16T11:00:40Z</time>
      </trkpt>
      <trkpt lat="48.06335" lon="7.02282">
        <ele>1148.0090332031</ele>
        <time>2018-02-16T11:00:52Z</time>
      </trkpt>
      <trkpt lat="48.06333" lon="7.02292">
        <ele>1148.0090332031</ele>
        <time>2018-02-16T11:01:06Z</time>
      </trkpt>
      <trkpt lat="48.06326" lon="7.02296">
        <ele>1147.0090332031</ele>
        <time>2018-02-16T11:01:21Z</time>
      </trkpt>
      <trkpt lat="48.0632" lon="7.02303">
        <ele>1144.0090332031</ele>
        <time>2018-02-16T11:01:32Z</time>
      </trkpt>
      <trkpt lat="48.06314" lon="7.02309">
        <ele>1142.0090332031</ele>
        <time>2018-02-16T11:01:47Z</time>
      </trkpt>
      <trkpt lat="48.06308" lon="7.02314">
        <ele>1147.0090332031</ele>
        <time>2018-02-16T11:02:03Z</time>
      </trkpt>
      <trkpt lat="48.063" lon="7.02318">
        <ele>1147.0090332031</ele>
        <time>2018-02-16T11:02:14Z</time>
      </trkpt>
      <trkpt lat="48.06293" lon="7.02322">
        <ele>1151.0090332031</ele>
        <time>2018-02-16T11:02:23Z</time>
      </trkpt>
      <trkpt lat="48.06286" lon="7.02327">
        <ele>1152.0090332031</ele>
        <time>2018-02-16T11:02:38Z</time>
      </trkpt>
      <trkpt lat="48.0628" lon="7.02331">
        <ele>1155.0090332031</ele>
        <time>2018-02-16T11:02:50Z</time>
      </trkpt>
      <trkpt lat="48.06273" lon="7.02334">
        <ele>1153.0090332031</ele>
        <time>2018-02-16T11:02:56Z</time>
      </trkpt>
      <trkpt lat="48.06265" lon="7.02337">
        <ele>1151.0090332031</ele>
        <time>2018-02-16T11:03:07Z</time>
      </trkpt>
      <trkpt lat="48.06258" lon="7.02341">
        <ele>1151.0090332031</ele>
        <time>2018-02-16T11:03:16Z</time>
      </trkpt>
      <trkpt lat="48.06252" lon="7.02345">
        <ele>1153.0090332031</ele>
        <time>2018-02-16T11:03:29Z</time>
      </trkpt>
      <trkpt lat="48.06246" lon="7.02351">
        <ele>1152.0090332031</ele>
        <time>2018-02-16T11:03:38Z</time>
      </trkpt>
      <trkpt lat="48.06238" lon="7.02356">
        <ele>1151.0090332031</ele>
        <time>2018-02-16T11:03:49Z</time>
      </trkpt>
      <trkpt lat="48.06232" lon="7.02362">
        <ele>1154.0090332031</ele>
        <time>2018-02-16T11:03:58Z</time>
      </trkpt>
      <trkpt lat="48.06227" lon="7.02371">
        <ele>1157.0090332031</ele>
        <time>2018-02-16T11:04:11Z</time>
      </trkpt>
      <trkpt lat="48.06222" lon="7.02379">
        <ele>1156.0090332031</ele>
        <time>2018-02-16T11:04:19Z</time>
      </trkpt>
      <trkpt lat="48.0622" lon="7.0239">
        <ele>1154.0090332031</ele>
        <time>2018-02-16T11:04:32Z</time>
      </trkpt>
      <trkpt lat="48.06216" lon="7.02399">
        <ele>1156.0090332031</ele>
        <time>2018-02-16T11:04:43Z</time>
      </trkpt>
      <trkpt lat="48.06209" lon="7.02404">
        <ele>1163.0090332031</ele>
        <time>2018-02-16T11:04:59Z</time>
      </trkpt>
      <trkpt lat="48.06201" lon="7.02404">
        <ele>1160.0090332031</ele>
        <time>2018-02-16T11:05:14Z</time>
      </trkpt>
      <trkpt lat="48.06193" lon="7.02403">
        <ele>1162.0090332031</ele>
        <time>2018-02-16T11:05:23Z</time>
      </trkpt>
      <trkpt lat="48.06185" lon="7.02406">
        <ele>1164.0090332031</ele>
        <time>2018-02-16T11:05:32Z</time>
      </trkpt>
      <trkpt lat="48.0618" lon="7.02414">
        <ele>1164.0090332031</ele>
        <time>2018-02-16T11:05:43Z</time>
      </trkpt>
      <trkpt lat="48.06175" lon="7.02423">
        <ele>1162.0090332031</ele>
        <time>2018-02-16T11:05:56Z</time>
      </trkpt>
      <trkpt lat="48.06169" lon="7.0243">
        <ele>1161.0090332031</ele>
        <time>2018-02-16T11:06:06Z</time>
      </trkpt>
      <trkpt lat="48.06164" lon="7.02438">
        <ele>1161.0090332031</ele>
        <time>2018-02-16T11:06:15Z</time>
      </trkpt>
      <trkpt lat="48.06158" lon="7.02447">
        <ele>1163.0090332031</ele>
        <time>2018-02-16T11:06:31Z</time>
      </trkpt>
      <trkpt lat="48.06153" lon="7.02454">
        <ele>1164.0090332031</ele>
        <time>2018-02-16T11:06:49Z</time>
      </trkpt>
      <trkpt lat="48.06148" lon="7.02462">
        <ele>1164.0090332031</ele>
        <time>2018-02-16T11:07:02Z</time>
      </trkpt>
      <trkpt lat="48.06144" lon="7.02473">
        <ele>1165.0090332031</ele>
        <time>2018-02-16T11:07:18Z</time>
      </trkpt>
      <trkpt lat="48.06139" lon="7.02481">
        <ele>1167.0090332031</ele>
        <time>2018-02-16T11:07:32Z</time>
      </trkpt>
      <trkpt lat="48.06134" lon="7.0249">
        <ele>1168.0090332031</ele>
        <time>2018-02-16T11:07:52Z</time>
      </trkpt>
      <trkpt lat="48.06127" lon="7.02496">
        <ele>1172.0090332031</ele>
        <time>2018-02-16T11:08:05Z</time>
      </trkpt>
      <trkpt lat="48.0612" lon="7.02501">
        <ele>1178.0090332031</ele>
        <time>2018-02-16T11:08:19Z</time>
      </trkpt>
      <trkpt lat="48.06112" lon="7.02498">
        <ele>1182.0090332031</ele>
        <time>2018-02-16T11:08:38Z</time>
      </trkpt>
      <trkpt lat="48.06105" lon="7.02498">
        <ele>1185.0090332031</ele>
        <time>2018-02-16T11:08:54Z</time>
      </trkpt>
      <trkpt lat="48.06097" lon="7.02498">
        <ele>1184.0090332031</ele>
        <time>2018-02-16T11:09:02Z</time>
      </trkpt>
      <trkpt lat="48.0609" lon="7.02498">
        <ele>1188.0090332031</ele>
        <time>2018-02-16T11:09:20Z</time>
      </trkpt>
      <trkpt lat="48.06082" lon="7.02495">
        <ele>1188.0090332031</ele>
        <time>2018-02-16T11:09:33Z</time>
      </trkpt>
      <trkpt lat="48.06076" lon="7.02489">
        <ele>1189.0090332031</ele>
        <time>2018-02-16T11:09:48Z</time>
      </trkpt>
      <trkpt lat="48.06071" lon="7.0248">
        <ele>1190.0090332031</ele>
        <time>2018-02-16T11:10:01Z</time>
      </trkpt>
      <trkpt lat="48.06065" lon="7.02474">
        <ele>1192.0090332031</ele>
        <time>2018-02-16T11:10:13Z</time>
      </trkpt>
      <trkpt lat="48.06058" lon="7.02468">
        <ele>1195.0090332031</ele>
        <time>2018-02-16T11:10:28Z</time>
      </trkpt>
      <trkpt lat="48.06055" lon="7.02459">
        <ele>1196.0090332031</ele>
        <time>2018-02-16T11:13:28Z</time>
      </trkpt>
      <trkpt lat="48.06048" lon="7.02453">
        <ele>1197.0090332031</ele>
        <time>2018-02-16T11:13:49Z</time>
      </trkpt>
      <trkpt lat="48.06043" lon="7.02445">
        <ele>1195.0090332031</ele>
        <time>2018-02-16T11:14:02Z</time>
      </trkpt>
      <trkpt lat="48.06036" lon="7.02439">
        <ele>1197.0090332031</ele>
        <time>2018-02-16T11:14:25Z</time>
      </trkpt>
      <trkpt lat="48.0603" lon="7.02432">
        <ele>1202.0090332031</ele>
        <time>2018-02-16T11:14:35Z</time>
      </trkpt>
      <trkpt lat="48.06025" lon="7.02425">
        <ele>1202.0090332031</ele>
        <time>2018-02-16T11:14:48Z</time>
      </trkpt>
      <trkpt lat="48.06018" lon="7.02421">
        <ele>1201.0090332031</ele>
        <time>2018-02-16T11:15:00Z</time>
      </trkpt>
      <trkpt lat="48.06011" lon="7.02416">
        <ele>1200.0090332031</ele>
        <time>2018-02-16T11:15:11Z</time>
      </trkpt>
      <trkpt lat="48.06004" lon="7.02413">
        <ele>1199.0090332031</ele>
        <time>2018-02-16T11:15:23Z</time>
      </trkpt>
      <trkpt lat="48.05997" lon="7.02408">
        <ele>1199.0090332031</ele>
        <time>2018-02-16T11:15:34Z</time>
      </trkpt>
      <trkpt lat="48.05992" lon="7.024">
        <ele>1195.0090332031</ele>
        <time>2018-02-16T11:15:44Z</time>
      </trkpt>
      <trkpt lat="48.05985" lon="7.02399">
        <ele>1196.0090332031</ele>
        <time>2018-02-16T11:15:51Z</time>
      </trkpt>
      <trkpt lat="48.05977" lon="7.02396">
        <ele>1196.0090332031</ele>
        <time>2018-02-16T11:16:02Z</time>
      </trkpt>
      <trkpt lat="48.05971" lon="7.0239">
        <ele>1197.0090332031</ele>
        <time>2018-02-16T11:16:16Z</time>
      </trkpt>
      <trkpt lat="48.05964" lon="7.02387">
        <ele>1196.0090332031</ele>
        <time>2018-02-16T11:16:30Z</time>
      </trkpt>
      <trkpt lat="48.05957" lon="7.02389">
        <ele>1190.0090332031</ele>
        <time>2018-02-16T11:16:39Z</time>
      </trkpt>
      <trkpt lat="48.05949" lon="7.02388">
        <ele>1189.0090332031</ele>
        <time>2018-02-16T11:16:59Z</time>
      </trkpt>
      <trkpt lat="48.05941" lon="7.02388">
        <ele>1195.0090332031</ele>
        <time>2018-02-16T11:18:19Z</time>
      </trkpt>
      <trkpt lat="48.05934" lon="7.02387">
        <ele>1201.0090332031</ele>
        <time>2018-02-16T11:18:36Z</time>
      </trkpt>
      <trkpt lat="48.05928" lon="7.02379">
        <ele>1202.0090332031</ele>
        <time>2018-02-16T11:18:52Z</time>
      </trkpt>
      <trkpt lat="48.05924" lon="7.02371">
        <ele>1201.0090332031</ele>
        <time>2018-02-16T11:19:10Z</time>
      </trkpt>
      <trkpt lat="48.05921" lon="7.0236">
        <ele>1198.0090332031</ele>
        <time>2018-02-16T11:19:27Z</time>
      </trkpt>
      <trkpt lat="48.05915" lon="7.02353">
        <ele>1202.0090332031</ele>
        <time>2018-02-16T11:19:41Z</time>
      </trkpt>
      <trkpt lat="48.05908" lon="7.0235">
        <ele>1206.0090332031</ele>
        <time>2018-02-16T11:19:52Z</time>
      </trkpt>
      <trkpt lat="48.05901" lon="7.02344">
        <ele>1204.0090332031</ele>
        <time>2018-02-16T11:20:01Z</time>
      </trkpt>
      <trkpt lat="48.05894" lon="7.02341">
        <ele>1203.0090332031</ele>
        <time>2018-02-16T11:20:09Z</time>
      </trkpt>
      <trkpt lat="48.05886" lon="7.02336">
        <ele>1205.0090332031</ele>
        <time>2018-02-16T11:20:21Z</time>
      </trkpt>
      <trkpt lat="48.05881" lon="7.02328">
        <ele>1202.0090332031</ele>
        <time>2018-02-16T11:20:35Z</time>
      </trkpt>
      <trkpt lat="48.05874" lon="7.02325">
        <ele>1203.0090332031</ele>
        <time>2018-02-16T11:20:46Z</time>
      </trkpt>
      <trkpt lat="48.05867" lon="7.02323">
        <ele>1201.0090332031</ele>
        <time>2018-02-16T11:20:55Z</time>
      </trkpt>
      <trkpt lat="48.0586" lon="7.02317">
        <ele>1203.0090332031</ele>
        <time>2018-02-16T11:21:07Z</time>
      </trkpt>
      <trkpt lat="48.05853" lon="7.0231">
        <ele>1205.0090332031</ele>
        <time>2018-02-16T11:21:20Z</time>
      </trkpt>
      <trkpt lat="48.05846" lon="7.02305">
        <ele>1209.0090332031</ele>
        <time>2018-02-16T11:21:34Z</time>
      </trkpt>
      <trkpt lat="48.05839" lon="7.02301">
        <ele>1210.0090332031</ele>
        <time>2018-02-16T11:21:48Z</time>
      </trkpt>
      <trkpt lat="48.05832" lon="7.02297">
        <ele>1214.0090332031</ele>
        <time>2018-02-16T11:22:04Z</time>
      </trkpt>
      <trkpt lat="48.05825" lon="7.023">
        <ele>1216.0090332031</ele>
        <time>2018-02-16T11:22:16Z</time>
      </trkpt>
      <trkpt lat="48.05818" lon="7.02305">
        <ele>1214.0090332031</ele>
        <time>2018-02-16T11:22:34Z</time>
      </trkpt>
      <trkpt lat="48.05811" lon="7.0231">
        <ele>1217.0090332031</ele>
        <time>2018-02-16T11:22:50Z</time>
      </trkpt>
      <trkpt lat="48.05807" lon="7.02319">
        <ele>1218.0090332031</ele>
        <time>2018-02-16T11:23:02Z</time>
      </trkpt>
      <trkpt lat="48.05801" lon="7.02326">
        <ele>1217.0090332031</ele>
        <time>2018-02-16T11:23:10Z</time>
      </trkpt>
      <trkpt lat="48.05796" lon="7.02333">
        <ele>1211.0090332031</ele>
        <time>2018-02-16T11:23:18Z</time>
      </trkpt>
      <trkpt lat="48.0579" lon="7.0234">
        <ele>1208.0090332031</ele>
        <time>2018-02-16T11:23:24Z</time>
      </trkpt>
      <trkpt lat="48.05784" lon="7.02349">
        <ele>1205.0090332031</ele>
        <time>2018-02-16T11:23:32Z</time>
      </trkpt>
      <trkpt lat="48.05778" lon="7.02356">
        <ele>1207.0090332031</ele>
        <time>2018-02-16T11:23:39Z</time>
      </trkpt>
      <trkpt lat="48.05773" lon="7.02363">
        <ele>1203.0090332031</ele>
        <time>2018-02-16T11:23:46Z</time>
      </trkpt>
      <trkpt lat="48.05766" lon="7.0237">
        <ele>1201.0090332031</ele>
        <time>2018-02-16T11:23:59Z</time>
      </trkpt>
      <trkpt lat="48.05759" lon="7.02376">
        <ele>1199.0090332031</ele>
        <time>2018-02-16T11:24:12Z</time>
      </trkpt>
      <trkpt lat="48.05752" lon="7.02382">
        <ele>1201.0090332031</ele>
        <time>2018-02-16T11:24:32Z</time>
      </trkpt>
      <trkpt lat="48.05746" lon="7.02386">
        <ele>1202.0090332031</ele>
        <time>2018-02-16T11:24:50Z</time>
      </trkpt>
      <trkpt lat="48.05738" lon="7.02386">
        <ele>1208.0090332031</ele>
        <time>2018-02-16T11:25:16Z</time>
      </trkpt>
      <trkpt lat="48.05731" lon="7.02387">
        <ele>1207.0090332031</ele>
        <time>2018-02-16T11:25:34Z</time>
      </trkpt>
      <trkpt lat="48.05726" lon="7.02394">
        <ele>1207.0090332031</ele>
        <time>2018-02-16T11:25:41Z</time>
      </trkpt>
      <trkpt lat="48.0572" lon="7.024">
        <ele>1202.0090332031</ele>
        <time>2018-02-16T11:25:53Z</time>
      </trkpt>
      <trkpt lat="48.05713" lon="7.02409">
        <ele>1203.0090332031</ele>
        <time>2018-02-16T11:26:05Z</time>
      </trkpt>
      <trkpt lat="48.05706" lon="7.02414">
        <ele>1206.0080566406</ele>
        <time>2018-02-16T11:26:31Z</time>
      </trkpt>
      <trkpt lat="48.057" lon="7.02407">
        <ele>1206.0080566406</ele>
        <time>2018-02-16T11:26:57Z</time>
      </trkpt>
      <trkpt lat="48.05696" lon="7.02398">
        <ele>1204.0080566406</ele>
        <time>2018-02-16T11:27:13Z</time>
      </trkpt>
      <trkpt lat="48.05691" lon="7.0241">
        <ele>1215.0080566406</ele>
        <time>2018-02-16T11:28:17Z</time>
      </trkpt>
      <trkpt lat="48.05685" lon="7.02419">
        <ele>1205.0080566406</ele>
        <time>2018-02-16T11:28:29Z</time>
      </trkpt>
      <trkpt lat="48.05679" lon="7.02427">
        <ele>1196.0080566406</ele>
        <time>2018-02-16T11:28:39Z</time>
      </trkpt>
      <trkpt lat="48.05674" lon="7.02435">
        <ele>1193.0080566406</ele>
        <time>2018-02-16T11:28:50Z</time>
      </trkpt>
      <trkpt lat="48.05671" lon="7.02445">
        <ele>1192.0080566406</ele>
        <time>2018-02-16T11:29:09Z</time>
      </trkpt>
      <trkpt lat="48.05664" lon="7.02443">
        <ele>1190.0080566406</ele>
        <time>2018-02-16T11:29:36Z</time>
      </trkpt>
      <trkpt lat="48.05659" lon="7.02453">
        <ele>1191.0080566406</ele>
        <time>2018-02-16T11:29:50Z</time>
      </trkpt>
      <trkpt lat="48.05658" lon="7.02463">
        <ele>1198.0080566406</ele>
        <time>2018-02-16T11:30:07Z</time>
      </trkpt>
      <trkpt lat="48.05651" lon="7.02466">
        <ele>1202.0080566406</ele>
        <time>2018-02-16T11:31:22Z</time>
      </trkpt>
      <trkpt lat="48.05646" lon="7.02474">
        <ele>1204.0080566406</ele>
        <time>2018-02-16T11:31:34Z</time>
      </trkpt>
      <trkpt lat="48.05641" lon="7.02483">
        <ele>1204.0080566406</ele>
        <time>2018-02-16T11:31:56Z</time>
      </trkpt>
      <trkpt lat="48.05636" lon="7.02491">
        <ele>1203.0080566406</ele>
        <time>2018-02-16T11:32:11Z</time>
      </trkpt>
      <trkpt lat="48.0563" lon="7.02499">
        <ele>1205.0080566406</ele>
        <time>2018-02-16T11:32:23Z</time>
      </trkpt>
      <trkpt lat="48.05626" lon="7.02508">
        <ele>1205.0080566406</ele>
        <time>2018-02-16T11:32:41Z</time>
      </trkpt>
      <trkpt lat="48.0562" lon="7.02514">
        <ele>1206.0080566406</ele>
        <time>2018-02-16T11:32:58Z</time>
      </trkpt>
      <trkpt lat="48.05613" lon="7.02518">
        <ele>1204.0080566406</ele>
        <time>2018-02-16T11:33:11Z</time>
      </trkpt>
      <trkpt lat="48.05606" lon="7.02519">
        <ele>1204.0080566406</ele>
        <time>2018-02-16T11:33:20Z</time>
      </trkpt>
      <trkpt lat="48.05598" lon="7.02519">
        <ele>1207.0080566406</ele>
        <time>2018-02-16T11:33:28Z</time>
      </trkpt>
      <trkpt lat="48.0559" lon="7.02519">
        <ele>1210.0080566406</ele>
        <time>2018-02-16T11:33:46Z</time>
      </trkpt>
      <trkpt lat="48.05582" lon="7.02515">
        <ele>1216.0080566406</ele>
        <time>2018-02-16T11:34:09Z</time>
      </trkpt>
      <trkpt lat="48.05575" lon="7.02518">
        <ele>1197.0080566406</ele>
        <time>2018-02-16T11:34:16Z</time>
      </trkpt>
      <trkpt lat="48.05568" lon="7.02511">
        <ele>1194.0080566406</ele>
        <time>2018-02-16T11:34:47Z</time>
      </trkpt>
      <trkpt lat="48.05561" lon="7.02505">
        <ele>1191.0080566406</ele>
        <time>2018-02-16T11:34:58Z</time>
      </trkpt>
      <trkpt lat="48.05553" lon="7.02505">
        <ele>1200.0080566406</ele>
        <time>2018-02-16T11:35:09Z</time>
      </trkpt>
      <trkpt lat="48.05544" lon="7.02506">
        <ele>1203.0080566406</ele>
        <time>2018-02-16T11:35:13Z</time>
      </trkpt>
      <trkpt lat="48.05536" lon="7.02505">
        <ele>1205.0080566406</ele>
        <time>2018-02-16T11:35:24Z</time>
      </trkpt>
      <trkpt lat="48.05528" lon="7.02507">
        <ele>1206.0080566406</ele>
        <time>2018-02-16T11:35:29Z</time>
      </trkpt>
      <trkpt lat="48.0552" lon="7.02507">
        <ele>1206.0080566406</ele>
        <time>2018-02-16T11:35:34Z</time>
      </trkpt>
      <trkpt lat="48.05512" lon="7.02508">
        <ele>1205.0080566406</ele>
        <time>2018-02-16T11:35:39Z</time>
      </trkpt>
      <trkpt lat="48.05504" lon="7.02506">
        <ele>1206.0080566406</ele>
        <time>2018-02-16T11:35:59Z</time>
      </trkpt>
      <trkpt lat="48.05497" lon="7.02505">
        <ele>1204.0080566406</ele>
        <time>2018-02-16T11:36:19Z</time>
      </trkpt>
      <trkpt lat="48.05489" lon="7.02503">
        <ele>1204.0080566406</ele>
        <time>2018-02-16T11:36:26Z</time>
      </trkpt>
      <trkpt lat="48.05481" lon="7.02501">
        <ele>1204.0080566406</ele>
        <time>2018-02-16T11:36:32Z</time>
      </trkpt>
      <trkpt lat="48.05473" lon="7.025">
        <ele>1206.0080566406</ele>
        <time>2018-02-16T11:36:38Z</time>
      </trkpt>
      <trkpt lat="48.05466" lon="7.02503">
        <ele>1208.0080566406</ele>
        <time>2018-02-16T11:36:45Z</time>
      </trkpt>
      <trkpt lat="48.05458" lon="7.02503">
        <ele>1212.0080566406</ele>
        <time>2018-02-16T11:36:52Z</time>
      </trkpt>
      <trkpt lat="48.0545" lon="7.02504">
        <ele>1212.0080566406</ele>
        <time>2018-02-16T11:37:01Z</time>
      </trkpt>
      <trkpt lat="48.05442" lon="7.02508">
        <ele>1212.0080566406</ele>
        <time>2018-02-16T11:37:12Z</time>
      </trkpt>
      <trkpt lat="48.05435" lon="7.0251">
        <ele>1212.0080566406</ele>
        <time>2018-02-16T11:37:20Z</time>
      </trkpt>
      <trkpt lat="48.05427" lon="7.02507">
        <ele>1212.0080566406</ele>
        <time>2018-02-16T11:37:27Z</time>
      </trkpt>
      <trkpt lat="48.05419" lon="7.02505">
        <ele>1214.0080566406</ele>
        <time>2018-02-16T11:37:33Z</time>
      </trkpt>
      <trkpt lat="48.05411" lon="7.02508">
        <ele>1214.0080566406</ele>
        <time>2018-02-16T11:37:39Z</time>
      </trkpt>
      <trkpt lat="48.05403" lon="7.02511">
        <ele>1214.0080566406</ele>
        <time>2018-02-16T11:37:48Z</time>
      </trkpt>
      <trkpt lat="48.05395" lon="7.02516">
        <ele>1215.0080566406</ele>
        <time>2018-02-16T11:37:55Z</time>
      </trkpt>
      <trkpt lat="48.05388" lon="7.0252">
        <ele>1216.0080566406</ele>
        <time>2018-02-16T11:38:00Z</time>
      </trkpt>
      <trkpt lat="48.05381" lon="7.02524">
        <ele>1217.0080566406</ele>
        <time>2018-02-16T11:38:07Z</time>
      </trkpt>
      <trkpt lat="48.05374" lon="7.02528">
        <ele>1216.0080566406</ele>
        <time>2018-02-16T11:38:13Z</time>
      </trkpt>
      <trkpt lat="48.05367" lon="7.02532">
        <ele>1217.0080566406</ele>
        <time>2018-02-16T11:38:20Z</time>
      </trkpt>
      <trkpt lat="48.0536" lon="7.02536">
        <ele>1216.0080566406</ele>
        <time>2018-02-16T11:38:27Z</time>
      </trkpt>
      <trkpt lat="48.05352" lon="7.0254">
        <ele>1217.0080566406</ele>
        <time>2018-02-16T11:38:34Z</time>
      </trkpt>
      <trkpt lat="48.05346" lon="7.02543">
        <ele>1217.0080566406</ele>
        <time>2018-02-16T11:38:42Z</time>
      </trkpt>
      <trkpt lat="48.05337" lon="7.02544">
        <ele>1216.0080566406</ele>
        <time>2018-02-16T11:38:50Z</time>
      </trkpt>
      <trkpt lat="48.0533" lon="7.02543">
        <ele>1212.0080566406</ele>
        <time>2018-02-16T11:40:20Z</time>
      </trkpt>
      <trkpt lat="48.05322" lon="7.02544">
        <ele>1212.0080566406</ele>
        <time>2018-02-16T11:46:29Z</time>
      </trkpt>
      <trkpt lat="48.05315" lon="7.02544">
        <ele>1211.0080566406</ele>
        <time>2018-02-16T11:46:38Z</time>
      </trkpt>
      <trkpt lat="48.05308" lon="7.02542">
        <ele>1211.0080566406</ele>
        <time>2018-02-16T11:47:03Z</time>
      </trkpt>
      <trkpt lat="48.053" lon="7.02539">
        <ele>1209.0080566406</ele>
        <time>2018-02-16T11:47:12Z</time>
      </trkpt>
      <trkpt lat="48.05292" lon="7.02542">
        <ele>1206.0080566406</ele>
        <time>2018-02-16T11:47:26Z</time>
      </trkpt>
      <trkpt lat="48.05285" lon="7.02541">
        <ele>1201.0080566406</ele>
        <time>2018-02-16T11:47:39Z</time>
      </trkpt>
      <trkpt lat="48.05277" lon="7.02537">
        <ele>1202.0080566406</ele>
        <time>2018-02-16T11:47:52Z</time>
      </trkpt>
      <trkpt lat="48.0527" lon="7.02534">
        <ele>1201.0080566406</ele>
        <time>2018-02-16T11:48:05Z</time>
      </trkpt>
      <trkpt lat="48.05262" lon="7.02532">
        <ele>1198.0080566406</ele>
        <time>2018-02-16T11:48:13Z</time>
      </trkpt>
      <trkpt lat="48.05255" lon="7.0253">
        <ele>1199.0080566406</ele>
        <time>2018-02-16T11:48:25Z</time>
      </trkpt>
      <trkpt lat="48.05248" lon="7.0253">
        <ele>1197.0080566406</ele>
        <time>2018-02-16T11:48:35Z</time>
      </trkpt>
      <trkpt lat="48.0524" lon="7.0253">
        <ele>1200.0080566406</ele>
        <time>2018-02-16T11:48:48Z</time>
      </trkpt>
      <trkpt lat="48.05233" lon="7.02529">
        <ele>1202.0080566406</ele>
        <time>2018-02-16T11:49:40Z</time>
      </trkpt>
      <trkpt lat="48.05225" lon="7.02529">
        <ele>1199.0080566406</ele>
        <time>2018-02-16T11:49:48Z</time>
      </trkpt>
      <trkpt lat="48.05217" lon="7.02528">
        <ele>1198.0080566406</ele>
        <time>2018-02-16T11:50:00Z</time>
      </trkpt>
      <trkpt lat="48.05209" lon="7.02528">
        <ele>1198.0080566406</ele>
        <time>2018-02-16T11:50:09Z</time>
      </trkpt>
      <trkpt lat="48.05202" lon="7.02531">
        <ele>1189.0080566406</ele>
        <time>2018-02-16T11:50:29Z</time>
      </trkpt>
      <trkpt lat="48.05195" lon="7.0253">
        <ele>1191.0080566406</ele>
        <time>2018-02-16T11:50:37Z</time>
      </trkpt>
      <trkpt lat="48.05186" lon="7.0253">
        <ele>1191.0080566406</ele>
        <time>2018-02-16T11:50:45Z</time>
      </trkpt>
      <trkpt lat="48.05179" lon="7.02528">
        <ele>1191.0080566406</ele>
        <time>2018-02-16T11:50:54Z</time>
      </trkpt>
      <trkpt lat="48.05172" lon="7.02526">
        <ele>1192.0080566406</ele>
        <time>2018-02-16T11:51:03Z</time>
      </trkpt>
      <trkpt lat="48.05165" lon="7.02523">
        <ele>1192.0080566406</ele>
        <time>2018-02-16T11:51:12Z</time>
      </trkpt>
      <trkpt lat="48.05157" lon="7.0252">
        <ele>1192.0080566406</ele>
        <time>2018-02-16T11:51:24Z</time>
      </trkpt>
      <trkpt lat="48.05151" lon="7.02516">
        <ele>1194.0080566406</ele>
        <time>2018-02-16T11:51:36Z</time>
      </trkpt>
      <trkpt lat="48.05143" lon="7.02511">
        <ele>1194.0080566406</ele>
        <time>2018-02-16T11:51:47Z</time>
      </trkpt>
      <trkpt lat="48.05137" lon="7.02507">
        <ele>1195.0080566406</ele>
        <time>2018-02-16T11:51:58Z</time>
      </trkpt>
      <trkpt lat="48.0513" lon="7.02502">
        <ele>1192.0080566406</ele>
        <time>2018-02-16T11:52:11Z</time>
      </trkpt>
      <trkpt lat="48.05123" lon="7.02498">
        <ele>1196.0080566406</ele>
        <time>2018-02-16T11:52:21Z</time>
      </trkpt>
      <trkpt lat="48.05116" lon="7.02493">
        <ele>1195.0080566406</ele>
        <time>2018-02-16T11:52:34Z</time>
      </trkpt>
      <trkpt lat="48.0511" lon="7.02489">
        <ele>1200.0080566406</ele>
        <time>2018-02-16T11:52:45Z</time>
      </trkpt>
      <trkpt lat="48.05103" lon="7.02483">
        <ele>1200.0080566406</ele>
        <time>2018-02-16T11:52:57Z</time>
      </trkpt>
      <trkpt lat="48.05095" lon="7.0248">
        <ele>1202.0080566406</ele>
        <time>2018-02-16T11:53:08Z</time>
      </trkpt>
      <trkpt lat="48.05089" lon="7.02475">
        <ele>1203.0080566406</ele>
        <time>2018-02-16T11:53:18Z</time>
      </trkpt>
      <trkpt lat="48.05082" lon="7.02469">
        <ele>1201.0080566406</ele>
        <time>2018-02-16T11:53:40Z</time>
      </trkpt>
      <trkpt lat="48.05076" lon="7.02463">
        <ele>1201.0080566406</ele>
        <time>2018-02-16T11:53:52Z</time>
      </trkpt>
      <trkpt lat="48.0507" lon="7.02456">
        <ele>1202.0080566406</ele>
        <time>2018-02-16T11:54:02Z</time>
      </trkpt>
      <trkpt lat="48.05062" lon="7.02446">
        <ele>1204.0080566406</ele>
        <time>2018-02-16T11:54:18Z</time>
      </trkpt>
      <trkpt lat="48.05055" lon="7.02443">
        <ele>1207.0080566406</ele>
        <time>2018-02-16T11:54:44Z</time>
      </trkpt>
      <trkpt lat="48.05048" lon="7.02438">
        <ele>1207.0080566406</ele>
        <time>2018-02-16T11:55:02Z</time>
      </trkpt>
      <trkpt lat="48.05043" lon="7.0243">
        <ele>1210.0080566406</ele>
        <time>2018-02-16T11:55:27Z</time>
      </trkpt>
      <trkpt lat="48.05037" lon="7.02422">
        <ele>1211.0069580078</ele>
        <time>2018-02-16T11:55:36Z</time>
      </trkpt>
      <trkpt lat="48.05032" lon="7.02412">
        <ele>1212.0069580078</ele>
        <time>2018-02-16T11:55:46Z</time>
      </trkpt>
      <trkpt lat="48.05027" lon="7.02404">
        <ele>1212.0069580078</ele>
        <time>2018-02-16T11:55:55Z</time>
      </trkpt>
      <trkpt lat="48.05023" lon="7.02395">
        <ele>1216.0069580078</ele>
        <time>2018-02-16T11:56:14Z</time>
      </trkpt>
      <trkpt lat="48.0502" lon="7.02384">
        <ele>1218.0069580078</ele>
        <time>2018-02-16T11:56:24Z</time>
      </trkpt>
      <trkpt lat="48.05017" lon="7.02374">
        <ele>1220.0069580078</ele>
        <time>2018-02-16T11:56:35Z</time>
      </trkpt>
      <trkpt lat="48.05014" lon="7.02364">
        <ele>1219.0069580078</ele>
        <time>2018-02-16T11:56:45Z</time>
      </trkpt>
      <trkpt lat="48.05006" lon="7.02363">
        <ele>1219.0069580078</ele>
        <time>2018-02-16T11:56:57Z</time>
      </trkpt>
      <trkpt lat="48.05002" lon="7.02353">
        <ele>1220.0069580078</ele>
        <time>2018-02-16T11:57:06Z</time>
      </trkpt>
      <trkpt lat="48.04997" lon="7.02345">
        <ele>1222.0069580078</ele>
        <time>2018-02-16T11:57:15Z</time>
      </trkpt>
      <trkpt lat="48.04989" lon="7.0235">
        <ele>1219.0069580078</ele>
        <time>2018-02-16T11:58:14Z</time>
      </trkpt>
      <trkpt lat="48.04983" lon="7.02357">
        <ele>1218.0069580078</ele>
        <time>2018-02-16T11:58:23Z</time>
      </trkpt>
      <trkpt lat="48.04978" lon="7.02364">
        <ele>1216.0069580078</ele>
        <time>2018-02-16T11:58:32Z</time>
      </trkpt>
      <trkpt lat="48.04985" lon="7.02361">
        <ele>1226.0069580078</ele>
        <time>2018-02-16T12:29:03Z</time>
      </trkpt>
      <trkpt lat="48.04991" lon="7.02355">
        <ele>1225.0069580078</ele>
        <time>2018-02-16T12:29:13Z</time>
      </trkpt>
      <trkpt lat="48.04998" lon="7.02349">
        <ele>1225.0069580078</ele>
        <time>2018-02-16T12:29:21Z</time>
      </trkpt>
      <trkpt lat="48.05004" lon="7.02343">
        <ele>1225.0069580078</ele>
        <time>2018-02-16T12:29:30Z</time>
      </trkpt>
      <trkpt lat="48.05011" lon="7.02338">
        <ele>1225.0069580078</ele>
        <time>2018-02-16T12:29:39Z</time>
      </trkpt>
      <trkpt lat="48.05016" lon="7.02329">
        <ele>1225.0069580078</ele>
        <time>2018-02-16T12:29:48Z</time>
      </trkpt>
      <trkpt lat="48.05023" lon="7.02321">
        <ele>1225.0069580078</ele>
        <time>2018-02-16T12:29:57Z</time>
      </trkpt>
      <trkpt lat="48.05029" lon="7.02314">
        <ele>1223.0069580078</ele>
        <time>2018-02-16T12:30:06Z</time>
      </trkpt>
      <trkpt lat="48.05035" lon="7.02307">
        <ele>1222.0069580078</ele>
        <time>2018-02-16T12:30:15Z</time>
      </trkpt>
      <trkpt lat="48.05041" lon="7.02302">
        <ele>1221.0080566406</ele>
        <time>2018-02-16T12:30:25Z</time>
      </trkpt>
      <trkpt lat="48.05047" lon="7.02295">
        <ele>1221.0080566406</ele>
        <time>2018-02-16T12:30:37Z</time>
      </trkpt>
      <trkpt lat="48.05053" lon="7.02288">
        <ele>1221.0080566406</ele>
        <time>2018-02-16T12:30:43Z</time>
      </trkpt>
      <trkpt lat="48.05059" lon="7.02282">
        <ele>1220.0080566406</ele>
        <time>2018-02-16T12:30:51Z</time>
      </trkpt>
      <trkpt lat="48.05062" lon="7.02271">
        <ele>1220.0080566406</ele>
        <time>2018-02-16T12:31:10Z</time>
      </trkpt>
      <trkpt lat="48.05066" lon="7.02261">
        <ele>1219.0080566406</ele>
        <time>2018-02-16T12:31:17Z</time>
      </trkpt>
      <trkpt lat="48.05068" lon="7.02251">
        <ele>1219.0080566406</ele>
        <time>2018-02-16T12:31:25Z</time>
      </trkpt>
      <trkpt lat="48.05073" lon="7.02241">
        <ele>1219.0080566406</ele>
        <time>2018-02-16T12:31:32Z</time>
      </trkpt>
      <trkpt lat="48.05076" lon="7.02232">
        <ele>1220.0080566406</ele>
        <time>2018-02-16T12:31:39Z</time>
      </trkpt>
      <trkpt lat="48.0508" lon="7.02222">
        <ele>1220.0080566406</ele>
        <time>2018-02-16T12:31:48Z</time>
      </trkpt>
      <trkpt lat="48.05083" lon="7.02211">
        <ele>1225.0080566406</ele>
        <time>2018-02-16T12:31:56Z</time>
      </trkpt>
      <trkpt lat="48.05085" lon="7.02201">
        <ele>1225.0080566406</ele>
        <time>2018-02-16T12:32:05Z</time>
      </trkpt>
      <trkpt lat="48.05089" lon="7.02191">
        <ele>1225.0080566406</ele>
        <time>2018-02-16T12:32:14Z</time>
      </trkpt>
      <trkpt lat="48.05093" lon="7.0218">
        <ele>1224.0080566406</ele>
        <time>2018-02-16T12:32:23Z</time>
      </trkpt>
      <trkpt lat="48.05097" lon="7.0217">
        <ele>1224.0080566406</ele>
        <time>2018-02-16T12:32:32Z</time>
      </trkpt>
      <trkpt lat="48.05101" lon="7.02161">
        <ele>1223.0080566406</ele>
        <time>2018-02-16T12:32:39Z</time>
      </trkpt>
      <trkpt lat="48.05105" lon="7.0215">
        <ele>1221.0080566406</ele>
        <time>2018-02-16T12:32:48Z</time>
      </trkpt>
      <trkpt lat="48.05109" lon="7.02141">
        <ele>1220.0080566406</ele>
        <time>2018-02-16T12:32:56Z</time>
      </trkpt>
      <trkpt lat="48.05111" lon="7.0213">
        <ele>1220.0080566406</ele>
        <time>2018-02-16T12:33:05Z</time>
      </trkpt>
      <trkpt lat="48.05115" lon="7.02121">
        <ele>1220.0080566406</ele>
        <time>2018-02-16T12:33:14Z</time>
      </trkpt>
      <trkpt lat="48.05117" lon="7.0211">
        <ele>1219.0080566406</ele>
        <time>2018-02-16T12:33:23Z</time>
      </trkpt>
      <trkpt lat="48.05121" lon="7.02101">
        <ele>1220.0080566406</ele>
        <time>2018-02-16T12:33:32Z</time>
      </trkpt>
      <trkpt lat="48.05124" lon="7.02091">
        <ele>1220.0080566406</ele>
        <time>2018-02-16T12:33:44Z</time>
      </trkpt>
      <trkpt lat="48.05126" lon="7.0208">
        <ele>1217.0080566406</ele>
        <time>2018-02-16T12:34:00Z</time>
      </trkpt>
      <trkpt lat="48.05123" lon="7.02071">
        <ele>1214.0080566406</ele>
        <time>2018-02-16T12:34:16Z</time>
      </trkpt>
      <trkpt lat="48.05124" lon="7.0206">
        <ele>1213.0080566406</ele>
        <time>2018-02-16T12:34:29Z</time>
      </trkpt>
      <trkpt lat="48.05124" lon="7.02049">
        <ele>1216.0080566406</ele>
        <time>2018-02-16T12:34:43Z</time>
      </trkpt>
      <trkpt lat="48.05125" lon="7.02037">
        <ele>1214.0080566406</ele>
        <time>2018-02-16T12:34:53Z</time>
      </trkpt>
      <trkpt lat="48.05123" lon="7.02026">
        <ele>1209.0080566406</ele>
        <time>2018-02-16T12:35:04Z</time>
      </trkpt>
      <trkpt lat="48.05121" lon="7.02015">
        <ele>1205.0080566406</ele>
        <time>2018-02-16T12:35:16Z</time>
      </trkpt>
      <trkpt lat="48.05122" lon="7.02004">
        <ele>1201.0080566406</ele>
        <time>2018-02-16T12:35:31Z</time>
      </trkpt>
      <trkpt lat="48.05121" lon="7.01993">
        <ele>1196.0080566406</ele>
        <time>2018-02-16T12:35:39Z</time>
      </trkpt>
      <trkpt lat="48.05121" lon="7.01981">
        <ele>1197.0080566406</ele>
        <time>2018-02-16T12:35:50Z</time>
      </trkpt>
      <trkpt lat="48.05121" lon="7.0197">
        <ele>1197.0080566406</ele>
        <time>2018-02-16T12:36:01Z</time>
      </trkpt>
      <trkpt lat="48.05123" lon="7.01959">
        <ele>1199.0080566406</ele>
        <time>2018-02-16T12:36:20Z</time>
      </trkpt>
      <trkpt lat="48.05125" lon="7.01948">
        <ele>1197.0080566406</ele>
        <time>2018-02-16T12:36:28Z</time>
      </trkpt>
      <trkpt lat="48.05126" lon="7.01937">
        <ele>1195.0080566406</ele>
        <time>2018-02-16T12:36:37Z</time>
      </trkpt>
      <trkpt lat="48.05123" lon="7.01925">
        <ele>1198.0080566406</ele>
        <time>2018-02-16T12:36:47Z</time>
      </trkpt>
      <trkpt lat="48.0512" lon="7.01915">
        <ele>1202.0080566406</ele>
        <time>2018-02-16T12:36:54Z</time>
      </trkpt>
      <trkpt lat="48.05118" lon="7.01903">
        <ele>1204.0080566406</ele>
        <time>2018-02-16T12:37:03Z</time>
      </trkpt>
      <trkpt lat="48.05119" lon="7.01893">
        <ele>1199.0080566406</ele>
        <time>2018-02-16T12:37:12Z</time>
      </trkpt>
      <trkpt lat="48.05118" lon="7.01881">
        <ele>1197.0080566406</ele>
        <time>2018-02-16T12:37:23Z</time>
      </trkpt>
      <trkpt lat="48.05119" lon="7.0187">
        <ele>1198.0080566406</ele>
        <time>2018-02-16T12:37:32Z</time>
      </trkpt>
      <trkpt lat="48.05116" lon="7.0186">
        <ele>1203.0080566406</ele>
        <time>2018-02-16T12:37:41Z</time>
      </trkpt>
      <trkpt lat="48.05116" lon="7.01848">
        <ele>1207.0080566406</ele>
        <time>2018-02-16T12:37:49Z</time>
      </trkpt>
      <trkpt lat="48.05113" lon="7.01838">
        <ele>1210.0080566406</ele>
        <time>2018-02-16T12:37:55Z</time>
      </trkpt>
      <trkpt lat="48.05109" lon="7.01828">
        <ele>1217.0080566406</ele>
        <time>2018-02-16T12:38:12Z</time>
      </trkpt>
      <trkpt lat="48.05104" lon="7.0182">
        <ele>1218.0080566406</ele>
        <time>2018-02-16T12:38:22Z</time>
      </trkpt>
      <trkpt lat="48.05097" lon="7.01813">
        <ele>1216.0080566406</ele>
        <time>2018-02-16T12:38:34Z</time>
      </trkpt>
      <trkpt lat="48.05092" lon="7.01804">
        <ele>1218.0080566406</ele>
        <time>2018-02-16T12:38:45Z</time>
      </trkpt>
      <trkpt lat="48.05085" lon="7.01798">
        <ele>1219.0080566406</ele>
        <time>2018-02-16T12:38:59Z</time>
      </trkpt>
      <trkpt lat="48.05079" lon="7.0179">
        <ele>1220.0080566406</ele>
        <time>2018-02-16T12:39:12Z</time>
      </trkpt>
      <trkpt lat="48.05072" lon="7.01786">
        <ele>1222.0080566406</ele>
        <time>2018-02-16T12:39:21Z</time>
      </trkpt>
      <trkpt lat="48.05065" lon="7.01782">
        <ele>1222.0080566406</ele>
        <time>2018-02-16T12:39:31Z</time>
      </trkpt>
      <trkpt lat="48.05058" lon="7.0178">
        <ele>1223.0080566406</ele>
        <time>2018-02-16T12:39:39Z</time>
      </trkpt>
      <trkpt lat="48.05051" lon="7.01776">
        <ele>1223.0080566406</ele>
        <time>2018-02-16T12:39:45Z</time>
      </trkpt>
      <trkpt lat="48.05044" lon="7.01771">
        <ele>1221.0080566406</ele>
        <time>2018-02-16T12:39:55Z</time>
      </trkpt>
      <trkpt lat="48.05037" lon="7.01767">
        <ele>1222.0080566406</ele>
        <time>2018-02-16T12:40:05Z</time>
      </trkpt>
      <trkpt lat="48.0503" lon="7.01763">
        <ele>1222.0080566406</ele>
        <time>2018-02-16T12:40:13Z</time>
      </trkpt>
      <trkpt lat="48.05023" lon="7.01757">
        <ele>1225.0069580078</ele>
        <time>2018-02-16T12:40:28Z</time>
      </trkpt>
      <trkpt lat="48.05016" lon="7.01754">
        <ele>1224.0069580078</ele>
        <time>2018-02-16T12:40:37Z</time>
      </trkpt>
      <trkpt lat="48.05008" lon="7.01753">
        <ele>1225.0069580078</ele>
        <time>2018-02-16T12:40:46Z</time>
      </trkpt>
      <trkpt lat="48.05001" lon="7.0175">
        <ele>1225.0069580078</ele>
        <time>2018-02-16T12:40:56Z</time>
      </trkpt>
      <trkpt lat="48.04993" lon="7.01747">
        <ele>1226.0069580078</ele>
        <time>2018-02-16T12:41:05Z</time>
      </trkpt>
      <trkpt lat="48.04986" lon="7.01742">
        <ele>1225.0069580078</ele>
        <time>2018-02-16T12:41:13Z</time>
      </trkpt>
      <trkpt lat="48.04981" lon="7.01734">
        <ele>1221.0069580078</ele>
        <time>2018-02-16T12:41:25Z</time>
      </trkpt>
      <trkpt lat="48.04975" lon="7.01727">
        <ele>1220.0069580078</ele>
        <time>2018-02-16T12:41:33Z</time>
      </trkpt>
      <trkpt lat="48.04971" lon="7.01717">
        <ele>1219.0069580078</ele>
        <time>2018-02-16T12:41:45Z</time>
      </trkpt>
      <trkpt lat="48.04968" lon="7.01708">
        <ele>1214.0069580078</ele>
        <time>2018-02-16T12:41:55Z</time>
      </trkpt>
      <trkpt lat="48.04966" lon="7.01697">
        <ele>1212.0069580078</ele>
        <time>2018-02-16T12:42:03Z</time>
      </trkpt>
      <trkpt lat="48.04961" lon="7.01687">
        <ele>1215.0069580078</ele>
        <time>2018-02-16T12:42:12Z</time>
      </trkpt>
      <trkpt lat="48.04956" lon="7.01678">
        <ele>1217.0069580078</ele>
        <time>2018-02-16T12:42:20Z</time>
      </trkpt>
      <trkpt lat="48.04951" lon="7.01669">
        <ele>1218.0069580078</ele>
        <time>2018-02-16T12:42:30Z</time>
      </trkpt>
      <trkpt lat="48.04946" lon="7.01661">
        <ele>1219.0069580078</ele>
        <time>2018-02-16T12:42:44Z</time>
      </trkpt>
      <trkpt lat="48.04942" lon="7.01652">
        <ele>1219.0069580078</ele>
        <time>2018-02-16T12:42:53Z</time>
      </trkpt>
      <trkpt lat="48.04924" lon="7.01635">
        <ele>1225.0069580078</ele>
        <time>2018-02-16T12:43:21Z</time>
      </trkpt>
      <trkpt lat="48.04917" lon="7.01631">
        <ele>1227.0069580078</ele>
        <time>2018-02-16T12:43:26Z</time>
      </trkpt>
      <trkpt lat="48.04911" lon="7.01624">
        <ele>1230.0069580078</ele>
        <time>2018-02-16T12:43:37Z</time>
      </trkpt>
      <trkpt lat="48.04905" lon="7.01617">
        <ele>1233.0069580078</ele>
        <time>2018-02-16T12:43:57Z</time>
      </trkpt>
      <trkpt lat="48.04899" lon="7.01611">
        <ele>1232.0069580078</ele>
        <time>2018-02-16T12:44:09Z</time>
      </trkpt>
      <trkpt lat="48.04893" lon="7.01603">
        <ele>1229.0069580078</ele>
        <time>2018-02-16T12:44:25Z</time>
      </trkpt>
      <trkpt lat="48.04886" lon="7.01599">
        <ele>1231.0069580078</ele>
        <time>2018-02-16T12:44:37Z</time>
      </trkpt>
      <trkpt lat="48.04878" lon="7.01594">
        <ele>1230.0069580078</ele>
        <time>2018-02-16T12:44:48Z</time>
      </trkpt>
      <trkpt lat="48.04872" lon="7.01589">
        <ele>1230.0069580078</ele>
        <time>2018-02-16T12:44:59Z</time>
      </trkpt>
      <trkpt lat="48.04865" lon="7.01583">
        <ele>1231.0069580078</ele>
        <time>2018-02-16T12:45:11Z</time>
      </trkpt>
      <trkpt lat="48.04858" lon="7.01578">
        <ele>1233.0069580078</ele>
        <time>2018-02-16T12:45:21Z</time>
      </trkpt>
      <trkpt lat="48.04852" lon="7.01572">
        <ele>1233.0069580078</ele>
        <time>2018-02-16T12:45:36Z</time>
      </trkpt>
      <trkpt lat="48.04845" lon="7.01568">
        <ele>1231.0069580078</ele>
        <time>2018-02-16T12:45:49Z</time>
      </trkpt>
      <trkpt lat="48.04839" lon="7.01561">
        <ele>1230.0069580078</ele>
        <time>2018-02-16T12:46:00Z</time>
      </trkpt>
      <trkpt lat="48.04834" lon="7.01554">
        <ele>1231.0069580078</ele>
        <time>2018-02-16T12:46:13Z</time>
      </trkpt>
      <trkpt lat="48.04828" lon="7.01548">
        <ele>1232.0069580078</ele>
        <time>2018-02-16T12:46:26Z</time>
      </trkpt>
      <trkpt lat="48.0482" lon="7.01543">
        <ele>1233.0069580078</ele>
        <time>2018-02-16T12:46:36Z</time>
      </trkpt>
      <trkpt lat="48.04812" lon="7.0154">
        <ele>1235.0069580078</ele>
        <time>2018-02-16T12:46:45Z</time>
      </trkpt>
      <trkpt lat="48.04806" lon="7.01534">
        <ele>1238.0069580078</ele>
        <time>2018-02-16T12:46:55Z</time>
      </trkpt>
      <trkpt lat="48.04799" lon="7.01537">
        <ele>1243.0069580078</ele>
        <time>2018-02-16T12:47:10Z</time>
      </trkpt>
      <trkpt lat="48.04791" lon="7.01534">
        <ele>1246.0069580078</ele>
        <time>2018-02-16T12:47:31Z</time>
      </trkpt>
      <trkpt lat="48.04784" lon="7.01531">
        <ele>1248.0069580078</ele>
        <time>2018-02-16T12:47:39Z</time>
      </trkpt>
      <trkpt lat="48.04777" lon="7.0153">
        <ele>1254.0069580078</ele>
        <time>2018-02-16T12:47:48Z</time>
      </trkpt>
      <trkpt lat="48.0477" lon="7.01529">
        <ele>1257.0069580078</ele>
        <time>2018-02-16T12:47:55Z</time>
      </trkpt>
      <trkpt lat="48.04762" lon="7.01529">
        <ele>1261.0069580078</ele>
        <time>2018-02-16T12:48:10Z</time>
      </trkpt>
      <trkpt lat="48.04756" lon="7.01534">
        <ele>1264.0069580078</ele>
        <time>2018-02-16T12:48:23Z</time>
      </trkpt>
      <trkpt lat="48.0475" lon="7.01542">
        <ele>1265.0069580078</ele>
        <time>2018-02-16T12:48:51Z</time>
      </trkpt>
      <trkpt lat="48.04742" lon="7.01545">
        <ele>1265.0069580078</ele>
        <time>2018-02-16T12:49:01Z</time>
      </trkpt>
      <trkpt lat="48.04736" lon="7.01551">
        <ele>1267.0069580078</ele>
        <time>2018-02-16T12:49:12Z</time>
      </trkpt>
      <trkpt lat="48.04729" lon="7.01557">
        <ele>1270.0069580078</ele>
        <time>2018-02-16T12:49:40Z</time>
      </trkpt>
      <trkpt lat="48.04723" lon="7.01562">
        <ele>1269.0069580078</ele>
        <time>2018-02-16T12:49:48Z</time>
      </trkpt>
      <trkpt lat="48.04715" lon="7.01566">
        <ele>1270.0069580078</ele>
        <time>2018-02-16T12:49:58Z</time>
      </trkpt>
      <trkpt lat="48.0471" lon="7.01573">
        <ele>1271.0069580078</ele>
        <time>2018-02-16T12:50:07Z</time>
      </trkpt>
      <trkpt lat="48.04704" lon="7.0158">
        <ele>1272.0069580078</ele>
        <time>2018-02-16T12:51:46Z</time>
      </trkpt>
      <trkpt lat="48.04697" lon="7.01574">
        <ele>1269.0069580078</ele>
        <time>2018-02-16T12:51:56Z</time>
      </trkpt>
      <trkpt lat="48.04691" lon="7.01567">
        <ele>1268.0069580078</ele>
        <time>2018-02-16T12:52:05Z</time>
      </trkpt>
      <trkpt lat="48.0469" lon="7.01556">
        <ele>1270.0069580078</ele>
        <time>2018-02-16T12:58:31Z</time>
      </trkpt>
      <trkpt lat="48.04695" lon="7.01548">
        <ele>1272.0069580078</ele>
        <time>2018-02-16T12:58:41Z</time>
      </trkpt>
      <trkpt lat="48.047" lon="7.0154">
        <ele>1271.0069580078</ele>
        <time>2018-02-16T12:58:50Z</time>
      </trkpt>
      <trkpt lat="48.04705" lon="7.01532">
        <ele>1272.0069580078</ele>
        <time>2018-02-16T12:59:41Z</time>
      </trkpt>
      <trkpt lat="48.04705" lon="7.0152">
        <ele>1272.0069580078</ele>
        <time>2018-02-16T12:59:52Z</time>
      </trkpt>
      <trkpt lat="48.04703" lon="7.0151">
        <ele>1272.0069580078</ele>
        <time>2018-02-16T13:00:00Z</time>
      </trkpt>
      <trkpt lat="48.04702" lon="7.01498">
        <ele>1272.0069580078</ele>
        <time>2018-02-16T13:00:10Z</time>
      </trkpt>
      <trkpt lat="48.04701" lon="7.01486">
        <ele>1273.0069580078</ele>
        <time>2018-02-16T13:00:18Z</time>
      </trkpt>
      <trkpt lat="48.04703" lon="7.01475">
        <ele>1273.0069580078</ele>
        <time>2018-02-16T13:00:27Z</time>
      </trkpt>
      <trkpt lat="48.04704" lon="7.01463">
        <ele>1274.0069580078</ele>
        <time>2018-02-16T13:00:37Z</time>
      </trkpt>
      <trkpt lat="48.04703" lon="7.01452">
        <ele>1274.0069580078</ele>
        <time>2018-02-16T13:00:46Z</time>
      </trkpt>
      <trkpt lat="48.04699" lon="7.01442">
        <ele>1273.0069580078</ele>
        <time>2018-02-16T13:00:55Z</time>
      </trkpt>
      <trkpt lat="48.04694" lon="7.01433">
        <ele>1273.0069580078</ele>
        <time>2018-02-16T13:01:03Z</time>
      </trkpt>
      <trkpt lat="48.04691" lon="7.01422">
        <ele>1274.0069580078</ele>
        <time>2018-02-16T13:01:14Z</time>
      </trkpt>
      <trkpt lat="48.04687" lon="7.01413">
        <ele>1274.0069580078</ele>
        <time>2018-02-16T13:01:22Z</time>
      </trkpt>
      <trkpt lat="48.04681" lon="7.01405">
        <ele>1274.0069580078</ele>
        <time>2018-02-16T13:01:33Z</time>
      </trkpt>
      <trkpt lat="48.04675" lon="7.01397">
        <ele>1274.0069580078</ele>
        <time>2018-02-16T13:01:43Z</time>
      </trkpt>
      <trkpt lat="48.04669" lon="7.0139">
        <ele>1273.0069580078</ele>
        <time>2018-02-16T13:01:53Z</time>
      </trkpt>
      <trkpt lat="48.04663" lon="7.01384">
        <ele>1273.0069580078</ele>
        <time>2018-02-16T13:02:07Z</time>
      </trkpt>
      <trkpt lat="48.04657" lon="7.01377">
        <ele>1274.0069580078</ele>
        <time>2018-02-16T13:02:17Z</time>
      </trkpt>
      <trkpt lat="48.0465" lon="7.01373">
        <ele>1273.0069580078</ele>
        <time>2018-02-16T13:02:28Z</time>
      </trkpt>
      <trkpt lat="48.04643" lon="7.01368">
        <ele>1273.0069580078</ele>
        <time>2018-02-16T13:02:39Z</time>
      </trkpt>
      <trkpt lat="48.04636" lon="7.01363">
        <ele>1274.0069580078</ele>
        <time>2018-02-16T13:02:55Z</time>
      </trkpt>
      <trkpt lat="48.04629" lon="7.01359">
        <ele>1274.0069580078</ele>
        <time>2018-02-16T13:03:07Z</time>
      </trkpt>
      <trkpt lat="48.04622" lon="7.01352">
        <ele>1274.0069580078</ele>
        <time>2018-02-16T13:03:19Z</time>
      </trkpt>
      <trkpt lat="48.04615" lon="7.01349">
        <ele>1274.0069580078</ele>
        <time>2018-02-16T13:03:30Z</time>
      </trkpt>
      <trkpt lat="48.04609" lon="7.01343">
        <ele>1275.0069580078</ele>
        <time>2018-02-16T13:03:40Z</time>
      </trkpt>
      <trkpt lat="48.04602" lon="7.01338">
        <ele>1275.0069580078</ele>
        <time>2018-02-16T13:03:50Z</time>
      </trkpt>
      <trkpt lat="48.04595" lon="7.01333">
        <ele>1276.0069580078</ele>
        <time>2018-02-16T13:04:00Z</time>
      </trkpt>
      <trkpt lat="48.04588" lon="7.01327">
        <ele>1277.0069580078</ele>
        <time>2018-02-16T13:04:12Z</time>
      </trkpt>
      <trkpt lat="48.04581" lon="7.01323">
        <ele>1277.0069580078</ele>
        <time>2018-02-16T13:04:21Z</time>
      </trkpt>
      <trkpt lat="48.04575" lon="7.01318">
        <ele>1279.0069580078</ele>
        <time>2018-02-16T13:04:31Z</time>
      </trkpt>
      <trkpt lat="48.04569" lon="7.01312">
        <ele>1279.0069580078</ele>
        <time>2018-02-16T13:04:41Z</time>
      </trkpt>
      <trkpt lat="48.04561" lon="7.0131">
        <ele>1280.0069580078</ele>
        <time>2018-02-16T13:04:51Z</time>
      </trkpt>
      <trkpt lat="48.04555" lon="7.01304">
        <ele>1281.0069580078</ele>
        <time>2018-02-16T13:05:01Z</time>
      </trkpt>
      <trkpt lat="48.04548" lon="7.013">
        <ele>1282.0069580078</ele>
        <time>2018-02-16T13:05:11Z</time>
      </trkpt>
      <trkpt lat="48.04541" lon="7.01294">
        <ele>1283.0069580078</ele>
        <time>2018-02-16T13:05:21Z</time>
      </trkpt>
      <trkpt lat="48.04534" lon="7.01288">
        <ele>1284.0069580078</ele>
        <time>2018-02-16T13:05:31Z</time>
      </trkpt>
      <trkpt lat="48.04528" lon="7.01283">
        <ele>1284.0069580078</ele>
        <time>2018-02-16T13:05:40Z</time>
      </trkpt>
      <trkpt lat="48.04521" lon="7.01277">
        <ele>1286.0069580078</ele>
        <time>2018-02-16T13:05:50Z</time>
      </trkpt>
      <trkpt lat="48.04515" lon="7.01272">
        <ele>1286.0069580078</ele>
        <time>2018-02-16T13:06:07Z</time>
      </trkpt>
      <trkpt lat="48.04507" lon="7.01267">
        <ele>1287.0069580078</ele>
        <time>2018-02-16T13:06:19Z</time>
      </trkpt>
      <trkpt lat="48.04501" lon="7.01262">
        <ele>1287.0069580078</ele>
        <time>2018-02-16T13:06:29Z</time>
      </trkpt>
      <trkpt lat="48.04495" lon="7.01257">
        <ele>1288.0069580078</ele>
        <time>2018-02-16T13:06:37Z</time>
      </trkpt>
      <trkpt lat="48.04488" lon="7.01253">
        <ele>1288.0069580078</ele>
        <time>2018-02-16T13:06:47Z</time>
      </trkpt>
      <trkpt lat="48.04481" lon="7.01247">
        <ele>1288.0069580078</ele>
        <time>2018-02-16T13:07:03Z</time>
      </trkpt>
      <trkpt lat="48.04474" lon="7.01243">
        <ele>1288.0069580078</ele>
        <time>2018-02-16T13:07:13Z</time>
      </trkpt>
      <trkpt lat="48.04467" lon="7.01239">
        <ele>1289.0069580078</ele>
        <time>2018-02-16T13:07:22Z</time>
      </trkpt>
      <trkpt lat="48.0446" lon="7.01234">
        <ele>1290.0069580078</ele>
        <time>2018-02-16T13:07:32Z</time>
      </trkpt>
      <trkpt lat="48.04453" lon="7.01228">
        <ele>1290.0069580078</ele>
        <time>2018-02-16T13:07:42Z</time>
      </trkpt>
      <trkpt lat="48.04447" lon="7.01222">
        <ele>1292.0069580078</ele>
        <time>2018-02-16T13:07:51Z</time>
      </trkpt>
      <trkpt lat="48.04441" lon="7.01216">
        <ele>1293.0069580078</ele>
        <time>2018-02-16T13:08:00Z</time>
      </trkpt>
      <trkpt lat="48.04434" lon="7.01212">
        <ele>1295.0069580078</ele>
        <time>2018-02-16T13:08:28Z</time>
      </trkpt>
      <trkpt lat="48.04426" lon="7.0121">
        <ele>1294.0069580078</ele>
        <time>2018-02-16T13:09:30Z</time>
      </trkpt>
      <trkpt lat="48.04419" lon="7.01208">
        <ele>1295.0069580078</ele>
        <time>2018-02-16T13:09:38Z</time>
      </trkpt>
      <trkpt lat="48.04412" lon="7.01211">
        <ele>1295.0069580078</ele>
        <time>2018-02-16T13:10:07Z</time>
      </trkpt>
      <trkpt lat="48.04404" lon="7.01209">
        <ele>1294.0069580078</ele>
        <time>2018-02-16T13:10:33Z</time>
      </trkpt>
      <trkpt lat="48.04397" lon="7.01207">
        <ele>1294.0069580078</ele>
        <time>2018-02-16T13:10:42Z</time>
      </trkpt>
      <trkpt lat="48.0439" lon="7.01204">
        <ele>1293.0069580078</ele>
        <time>2018-02-16T13:10:50Z</time>
      </trkpt>
      <trkpt lat="48.04383" lon="7.01201">
        <ele>1293.0069580078</ele>
        <time>2018-02-16T13:10:58Z</time>
      </trkpt>
      <trkpt lat="48.04375" lon="7.01198">
        <ele>1292.0069580078</ele>
        <time>2018-02-16T13:11:06Z</time>
      </trkpt>
      <trkpt lat="48.04368" lon="7.01195">
        <ele>1292.0069580078</ele>
        <time>2018-02-16T13:11:14Z</time>
      </trkpt>
      <trkpt lat="48.0436" lon="7.01193">
        <ele>1291.0069580078</ele>
        <time>2018-02-16T13:11:22Z</time>
      </trkpt>
      <trkpt lat="48.04354" lon="7.01189">
        <ele>1291.0069580078</ele>
        <time>2018-02-16T13:11:29Z</time>
      </trkpt>
      <trkpt lat="48.04346" lon="7.01184">
        <ele>1292.0059814453</ele>
        <time>2018-02-16T13:11:36Z</time>
      </trkpt>
      <trkpt lat="48.04338" lon="7.01181">
        <ele>1292.0059814453</ele>
        <time>2018-02-16T13:11:44Z</time>
      </trkpt>
      <trkpt lat="48.0433" lon="7.01178">
        <ele>1293.0059814453</ele>
        <time>2018-02-16T13:11:51Z</time>
      </trkpt>
      <trkpt lat="48.04323" lon="7.01174">
        <ele>1293.0059814453</ele>
        <time>2018-02-16T13:11:59Z</time>
      </trkpt>
      <trkpt lat="48.04316" lon="7.0117">
        <ele>1295.0059814453</ele>
        <time>2018-02-16T13:12:07Z</time>
      </trkpt>
      <trkpt lat="48.04309" lon="7.01166">
        <ele>1295.0059814453</ele>
        <time>2018-02-16T13:12:16Z</time>
      </trkpt>
      <trkpt lat="48.04301" lon="7.01164">
        <ele>1296.0059814453</ele>
        <time>2018-02-16T13:12:23Z</time>
      </trkpt>
      <trkpt lat="48.04297" lon="7.01155">
        <ele>1297.0059814453</ele>
        <time>2018-02-16T13:12:32Z</time>
      </trkpt>
      <trkpt lat="48.04291" lon="7.01148">
        <ele>1298.0059814453</ele>
        <time>2018-02-16T13:12:42Z</time>
      </trkpt>
      <trkpt lat="48.04283" lon="7.01146">
        <ele>1298.0059814453</ele>
        <time>2018-02-16T13:12:50Z</time>
      </trkpt>
      <trkpt lat="48.04276" lon="7.0114">
        <ele>1298.0059814453</ele>
        <time>2018-02-16T13:12:58Z</time>
      </trkpt>
      <trkpt lat="48.04269" lon="7.01137">
        <ele>1298.0059814453</ele>
        <time>2018-02-16T13:13:06Z</time>
      </trkpt>
      <trkpt lat="48.04261" lon="7.01134">
        <ele>1297.0059814453</ele>
        <time>2018-02-16T13:13:14Z</time>
      </trkpt>
      <trkpt lat="48.04255" lon="7.01128">
        <ele>1296.0059814453</ele>
        <time>2018-02-16T13:13:21Z</time>
      </trkpt>
      <trkpt lat="48.04248" lon="7.01124">
        <ele>1295.0059814453</ele>
        <time>2018-02-16T13:13:28Z</time>
      </trkpt>
      <trkpt lat="48.04236" lon="7.01121">
        <ele>1292.0059814453</ele>
        <time>2018-02-16T13:13:38Z</time>
      </trkpt>
      <trkpt lat="48.04228" lon="7.01118">
        <ele>1292.0059814453</ele>
        <time>2018-02-16T13:13:46Z</time>
      </trkpt>
      <trkpt lat="48.0422" lon="7.01117">
        <ele>1291.0059814453</ele>
        <time>2018-02-16T13:13:53Z</time>
      </trkpt>
      <trkpt lat="48.04212" lon="7.01116">
        <ele>1290.0059814453</ele>
        <time>2018-02-16T13:14:00Z</time>
      </trkpt>
      <trkpt lat="48.04205" lon="7.01115">
        <ele>1289.0059814453</ele>
        <time>2018-02-16T13:14:07Z</time>
      </trkpt>
      <trkpt lat="48.04197" lon="7.01114">
        <ele>1288.0059814453</ele>
        <time>2018-02-16T13:14:15Z</time>
      </trkpt>
      <trkpt lat="48.0419" lon="7.01111">
        <ele>1288.0059814453</ele>
        <time>2018-02-16T13:14:22Z</time>
      </trkpt>
      <trkpt lat="48.04183" lon="7.01109">
        <ele>1288.0059814453</ele>
        <time>2018-02-16T13:14:29Z</time>
      </trkpt>
      <trkpt lat="48.04175" lon="7.01108">
        <ele>1288.0059814453</ele>
        <time>2018-02-16T13:14:36Z</time>
      </trkpt>
      <trkpt lat="48.04168" lon="7.01106">
        <ele>1290.0059814453</ele>
        <time>2018-02-16T13:14:49Z</time>
      </trkpt>
      <trkpt lat="48.04163" lon="7.01115">
        <ele>1294.0059814453</ele>
        <time>2018-02-16T13:16:30Z</time>
      </trkpt>
      <trkpt lat="48.04157" lon="7.01122">
        <ele>1295.0059814453</ele>
        <time>2018-02-16T13:16:42Z</time>
      </trkpt>
      <trkpt lat="48.04153" lon="7.01132">
        <ele>1295.0059814453</ele>
        <time>2018-02-16T13:16:54Z</time>
      </trkpt>
      <trkpt lat="48.04149" lon="7.01141">
        <ele>1297.0059814453</ele>
        <time>2018-02-16T13:17:05Z</time>
      </trkpt>
      <trkpt lat="48.04144" lon="7.01149">
        <ele>1300.0059814453</ele>
        <time>2018-02-16T13:17:17Z</time>
      </trkpt>
      <trkpt lat="48.04143" lon="7.0116">
        <ele>1300.0059814453</ele>
        <time>2018-02-16T13:17:27Z</time>
      </trkpt>
      <trkpt lat="48.04142" lon="7.01171">
        <ele>1301.0059814453</ele>
        <time>2018-02-16T13:17:41Z</time>
      </trkpt>
      <trkpt lat="48.0414" lon="7.01181">
        <ele>1302.0059814453</ele>
        <time>2018-02-16T13:17:53Z</time>
      </trkpt>
      <trkpt lat="48.04137" lon="7.01192">
        <ele>1305.0059814453</ele>
        <time>2018-02-16T13:18:11Z</time>
      </trkpt>
      <trkpt lat="48.04132" lon="7.012">
        <ele>1305.0059814453</ele>
        <time>2018-02-16T13:18:23Z</time>
      </trkpt>
      <trkpt lat="48.04128" lon="7.01209">
        <ele>1307.0059814453</ele>
        <time>2018-02-16T13:18:35Z</time>
      </trkpt>
      <trkpt lat="48.04121" lon="7.01214">
        <ele>1310.0059814453</ele>
        <time>2018-02-16T13:21:23Z</time>
      </trkpt>
      <trkpt lat="48.04113" lon="7.01218">
        <ele>1311.0059814453</ele>
        <time>2018-02-16T13:21:31Z</time>
      </trkpt>
      <trkpt lat="48.04107" lon="7.01224">
        <ele>1313.0059814453</ele>
        <time>2018-02-16T13:21:41Z</time>
      </trkpt>
      <trkpt lat="48.041" lon="7.01228">
        <ele>1314.0059814453</ele>
        <time>2018-02-16T13:21:50Z</time>
      </trkpt>
      <trkpt lat="48.04095" lon="7.01236">
        <ele>1315.0059814453</ele>
        <time>2018-02-16T13:21:59Z</time>
      </trkpt>
      <trkpt lat="48.04089" lon="7.01244">
        <ele>1317.0059814453</ele>
        <time>2018-02-16T13:22:08Z</time>
      </trkpt>
      <trkpt lat="48.04083" lon="7.0125">
        <ele>1318.0059814453</ele>
        <time>2018-02-16T13:22:17Z</time>
      </trkpt>
      <trkpt lat="48.04079" lon="7.0126">
        <ele>1320.0059814453</ele>
        <time>2018-02-16T13:22:26Z</time>
      </trkpt>
      <trkpt lat="48.04074" lon="7.01269">
        <ele>1321.0059814453</ele>
        <time>2018-02-16T13:22:35Z</time>
      </trkpt>
      <trkpt lat="48.04067" lon="7.01274">
        <ele>1321.0059814453</ele>
        <time>2018-02-16T13:22:44Z</time>
      </trkpt>
      <trkpt lat="48.04061" lon="7.01281">
        <ele>1321.0059814453</ele>
        <time>2018-02-16T13:22:53Z</time>
      </trkpt>
      <trkpt lat="48.04054" lon="7.01286">
        <ele>1322.0059814453</ele>
        <time>2018-02-16T13:23:03Z</time>
      </trkpt>
      <trkpt lat="48.04047" lon="7.01292">
        <ele>1323.0059814453</ele>
        <time>2018-02-16T13:23:14Z</time>
      </trkpt>
      <trkpt lat="48.0404" lon="7.01297">
        <ele>1325.0059814453</ele>
        <time>2018-02-16T13:23:23Z</time>
      </trkpt>
      <trkpt lat="48.04033" lon="7.01303">
        <ele>1325.0059814453</ele>
        <time>2018-02-16T13:23:34Z</time>
      </trkpt>
      <trkpt lat="48.04027" lon="7.01309">
        <ele>1326.0059814453</ele>
        <time>2018-02-16T13:23:43Z</time>
      </trkpt>
      <trkpt lat="48.0402" lon="7.01315">
        <ele>1326.0059814453</ele>
        <time>2018-02-16T13:23:52Z</time>
      </trkpt>
      <trkpt lat="48.04013" lon="7.01319">
        <ele>1327.0059814453</ele>
        <time>2018-02-16T13:24:02Z</time>
      </trkpt>
      <trkpt lat="48.04005" lon="7.01324">
        <ele>1328.0059814453</ele>
        <time>2018-02-16T13:24:13Z</time>
      </trkpt>
      <trkpt lat="48.04" lon="7.01332">
        <ele>1330.0059814453</ele>
        <time>2018-02-16T13:24:23Z</time>
      </trkpt>
      <trkpt lat="48.03994" lon="7.01337">
        <ele>1331.0059814453</ele>
        <time>2018-02-16T13:24:34Z</time>
      </trkpt>
      <trkpt lat="48.03987" lon="7.01343">
        <ele>1331.0059814453</ele>
        <time>2018-02-16T13:24:44Z</time>
      </trkpt>
      <trkpt lat="48.0398" lon="7.01348">
        <ele>1332.0059814453</ele>
        <time>2018-02-16T13:24:57Z</time>
      </trkpt>
      <trkpt lat="48.03974" lon="7.01355">
        <ele>1332.0059814453</ele>
        <time>2018-02-16T13:25:09Z</time>
      </trkpt>
      <trkpt lat="48.03968" lon="7.01361">
        <ele>1333.0059814453</ele>
        <time>2018-02-16T13:25:19Z</time>
      </trkpt>
      <trkpt lat="48.03961" lon="7.01368">
        <ele>1334.0059814453</ele>
        <time>2018-02-16T13:26:03Z</time>
      </trkpt>
      <trkpt lat="48.03956" lon="7.01376">
        <ele>1336.0059814453</ele>
        <time>2018-02-16T13:26:13Z</time>
      </trkpt>
      <trkpt lat="48.0395" lon="7.01383">
        <ele>1337.0059814453</ele>
        <time>2018-02-16T13:26:23Z</time>
      </trkpt>
      <trkpt lat="48.03942" lon="7.01385">
        <ele>1339.0059814453</ele>
        <time>2018-02-16T13:26:33Z</time>
      </trkpt>
      <trkpt lat="48.03936" lon="7.01392">
        <ele>1339.0059814453</ele>
        <time>2018-02-16T13:26:43Z</time>
      </trkpt>
      <trkpt lat="48.03929" lon="7.01398">
        <ele>1340.0059814453</ele>
        <time>2018-02-16T13:26:53Z</time>
      </trkpt>
      <trkpt lat="48.03922" lon="7.01404">
        <ele>1340.0059814453</ele>
        <time>2018-02-16T13:27:02Z</time>
      </trkpt>
      <trkpt lat="48.03915" lon="7.0141">
        <ele>1341.0059814453</ele>
        <time>2018-02-16T13:27:11Z</time>
      </trkpt>
      <trkpt lat="48.03909" lon="7.01416">
        <ele>1341.0059814453</ele>
        <time>2018-02-16T13:27:20Z</time>
      </trkpt>
      <trkpt lat="48.03902" lon="7.01419">
        <ele>1342.0059814453</ele>
        <time>2018-02-16T13:27:28Z</time>
      </trkpt>
      <trkpt lat="48.03895" lon="7.01425">
        <ele>1343.0059814453</ele>
        <time>2018-02-16T13:27:42Z</time>
      </trkpt>
      <trkpt lat="48.0389" lon="7.01433">
        <ele>1343.0059814453</ele>
        <time>2018-02-16T13:27:55Z</time>
      </trkpt>
      <trkpt lat="48.03883" lon="7.01438">
        <ele>1343.0059814453</ele>
        <time>2018-02-16T13:28:17Z</time>
      </trkpt>
      <trkpt lat="48.03876" lon="7.01444">
        <ele>1344.0059814453</ele>
        <time>2018-02-16T13:28:29Z</time>
      </trkpt>
      <trkpt lat="48.0387" lon="7.01448">
        <ele>1345.0059814453</ele>
        <time>2018-02-16T13:28:48Z</time>
      </trkpt>
      <trkpt lat="48.03864" lon="7.01456">
        <ele>1346.0059814453</ele>
        <time>2018-02-16T13:28:59Z</time>
      </trkpt>
      <trkpt lat="48.03858" lon="7.01462">
        <ele>1347.0059814453</ele>
        <time>2018-02-16T13:29:09Z</time>
      </trkpt>
      <trkpt lat="48.03853" lon="7.0147">
        <ele>1347.0059814453</ele>
        <time>2018-02-16T13:29:22Z</time>
      </trkpt>
      <trkpt lat="48.03848" lon="7.01479">
        <ele>1347.0059814453</ele>
        <time>2018-02-16T13:29:32Z</time>
      </trkpt>
      <trkpt lat="48.03843" lon="7.01487">
        <ele>1349.0059814453</ele>
        <time>2018-02-16T13:29:43Z</time>
      </trkpt>
      <trkpt lat="48.03836" lon="7.01491">
        <ele>1350.0059814453</ele>
        <time>2018-02-16T13:30:01Z</time>
      </trkpt>
      <trkpt lat="48.0383" lon="7.01498">
        <ele>1351.0059814453</ele>
        <time>2018-02-16T13:30:11Z</time>
      </trkpt>
      <trkpt lat="48.03822" lon="7.01502">
        <ele>1353.0059814453</ele>
        <time>2018-02-16T13:30:19Z</time>
      </trkpt>
      <trkpt lat="48.03815" lon="7.01507">
        <ele>1354.0059814453</ele>
        <time>2018-02-16T13:30:28Z</time>
      </trkpt>
      <trkpt lat="48.03808" lon="7.01512">
        <ele>1355.0059814453</ele>
        <time>2018-02-16T13:30:38Z</time>
      </trkpt>
      <trkpt lat="48.03801" lon="7.01512">
        <ele>1357.0059814453</ele>
        <time>2018-02-16T13:30:51Z</time>
      </trkpt>
      <trkpt lat="48.03795" lon="7.01519">
        <ele>1358.0059814453</ele>
        <time>2018-02-16T13:31:04Z</time>
      </trkpt>
      <trkpt lat="48.03796" lon="7.01531">
        <ele>1359.0059814453</ele>
        <time>2018-02-16T13:31:13Z</time>
      </trkpt>
      <trkpt lat="48.03795" lon="7.01542">
        <ele>1360.0059814453</ele>
        <time>2018-02-16T13:31:21Z</time>
      </trkpt>
      <trkpt lat="48.03794" lon="7.01554">
        <ele>1360.0059814453</ele>
        <time>2018-02-16T13:31:32Z</time>
      </trkpt>
      <trkpt lat="48.03787" lon="7.0156">
        <ele>1360.0059814453</ele>
        <time>2018-02-16T13:31:44Z</time>
      </trkpt>
      <trkpt lat="48.03782" lon="7.01569">
        <ele>1359.0059814453</ele>
        <time>2018-02-16T13:31:55Z</time>
      </trkpt>
      <trkpt lat="48.03779" lon="7.01579">
        <ele>1361.0059814453</ele>
        <time>2018-02-16T13:32:07Z</time>
      </trkpt>
      <trkpt lat="48.03775" lon="7.01589">
        <ele>1364.0059814453</ele>
        <time>2018-02-16T13:32:21Z</time>
      </trkpt>
      <trkpt lat="48.03771" lon="7.01597">
        <ele>1364.0059814453</ele>
        <time>2018-02-16T13:32:29Z</time>
      </trkpt>
      <trkpt lat="48.03766" lon="7.01607">
        <ele>1363.0059814453</ele>
        <time>2018-02-16T13:32:37Z</time>
      </trkpt>
      <trkpt lat="48.03762" lon="7.01616">
        <ele>1362.0059814453</ele>
        <time>2018-02-16T13:32:46Z</time>
      </trkpt>
      <trkpt lat="48.03755" lon="7.01611">
        <ele>1362.0059814453</ele>
        <time>2018-02-16T13:42:05Z</time>
      </trkpt>
      <trkpt lat="48.03752" lon="7.01601">
        <ele>1363.0059814453</ele>
        <time>2018-02-16T13:42:12Z</time>
      </trkpt>
      <trkpt lat="48.03749" lon="7.01591">
        <ele>1363.0059814453</ele>
        <time>2018-02-16T13:42:19Z</time>
      </trkpt>
      <trkpt lat="48.03746" lon="7.01581">
        <ele>1362.0059814453</ele>
        <time>2018-02-16T13:42:27Z</time>
      </trkpt>
      <trkpt lat="48.03741" lon="7.01572">
        <ele>1363.0059814453</ele>
        <time>2018-02-16T13:42:37Z</time>
      </trkpt>
      <trkpt lat="48.03737" lon="7.01561">
        <ele>1362.0059814453</ele>
        <time>2018-02-16T13:42:45Z</time>
      </trkpt>
      <trkpt lat="48.03735" lon="7.0155">
        <ele>1362.0059814453</ele>
        <time>2018-02-16T13:42:53Z</time>
      </trkpt>
      <trkpt lat="48.03731" lon="7.0154">
        <ele>1360.0059814453</ele>
        <time>2018-02-16T13:43:00Z</time>
      </trkpt>
      <trkpt lat="48.03728" lon="7.01529">
        <ele>1359.0059814453</ele>
        <time>2018-02-16T13:43:12Z</time>
      </trkpt>
      <trkpt lat="48.03726" lon="7.01518">
        <ele>1359.0059814453</ele>
        <time>2018-02-16T13:43:38Z</time>
      </trkpt>
      <trkpt lat="48.03722" lon="7.01508">
        <ele>1358.0059814453</ele>
        <time>2018-02-16T13:43:47Z</time>
      </trkpt>
      <trkpt lat="48.0372" lon="7.01497">
        <ele>1356.0059814453</ele>
        <time>2018-02-16T13:43:57Z</time>
      </trkpt>
      <trkpt lat="48.03717" lon="7.01485">
        <ele>1353.0059814453</ele>
        <time>2018-02-16T13:44:09Z</time>
      </trkpt>
      <trkpt lat="48.03713" lon="7.01476">
        <ele>1351.0059814453</ele>
        <time>2018-02-16T13:44:18Z</time>
      </trkpt>
      <trkpt lat="48.0371" lon="7.01465">
        <ele>1350.0059814453</ele>
        <time>2018-02-16T13:44:26Z</time>
      </trkpt>
      <trkpt lat="48.03712" lon="7.01455">
        <ele>1348.0059814453</ele>
        <time>2018-02-16T13:44:35Z</time>
      </trkpt>
      <trkpt lat="48.03711" lon="7.01443">
        <ele>1348.0059814453</ele>
        <time>2018-02-16T13:44:42Z</time>
      </trkpt>
      <trkpt lat="48.03709" lon="7.01432">
        <ele>1351.0059814453</ele>
        <time>2018-02-16T13:44:50Z</time>
      </trkpt>
      <trkpt lat="48.03706" lon="7.01422">
        <ele>1345.0059814453</ele>
        <time>2018-02-16T13:44:56Z</time>
      </trkpt>
      <trkpt lat="48.03702" lon="7.0141">
        <ele>1344.0059814453</ele>
        <time>2018-02-16T13:45:03Z</time>
      </trkpt>
      <trkpt lat="48.03697" lon="7.01401">
        <ele>1343.0059814453</ele>
        <time>2018-02-16T13:45:10Z</time>
      </trkpt>
      <trkpt lat="48.03696" lon="7.01389">
        <ele>1342.0059814453</ele>
        <time>2018-02-16T13:45:46Z</time>
      </trkpt>
      <trkpt lat="48.03692" lon="7.01379">
        <ele>1341.0059814453</ele>
        <time>2018-02-16T13:45:53Z</time>
      </trkpt>
      <trkpt lat="48.03689" lon="7.01369">
        <ele>1338.0059814453</ele>
        <time>2018-02-16T13:46:10Z</time>
      </trkpt>
      <trkpt lat="48.03685" lon="7.0136">
        <ele>1336.0059814453</ele>
        <time>2018-02-16T13:46:17Z</time>
      </trkpt>
      <trkpt lat="48.03682" lon="7.01348">
        <ele>1334.0050048828</ele>
        <time>2018-02-16T13:46:24Z</time>
      </trkpt>
      <trkpt lat="48.03682" lon="7.01336">
        <ele>1331.0050048828</ele>
        <time>2018-02-16T13:46:54Z</time>
      </trkpt>
      <trkpt lat="48.03678" lon="7.01327">
        <ele>1329.0050048828</ele>
        <time>2018-02-16T13:47:04Z</time>
      </trkpt>
      <trkpt lat="48.03675" lon="7.01316">
        <ele>1327.0050048828</ele>
        <time>2018-02-16T13:47:17Z</time>
      </trkpt>
      <trkpt lat="48.0367" lon="7.01307">
        <ele>1326.0050048828</ele>
        <time>2018-02-16T13:47:24Z</time>
      </trkpt>
      <trkpt lat="48.03664" lon="7.01302">
        <ele>1324.0050048828</ele>
        <time>2018-02-16T13:47:31Z</time>
      </trkpt>
      <trkpt lat="48.03658" lon="7.01294">
        <ele>1321.0050048828</ele>
        <time>2018-02-16T13:47:39Z</time>
      </trkpt>
      <trkpt lat="48.03653" lon="7.01286">
        <ele>1320.0050048828</ele>
        <time>2018-02-16T13:47:47Z</time>
      </trkpt>
      <trkpt lat="48.03647" lon="7.0128">
        <ele>1316.0050048828</ele>
        <time>2018-02-16T13:48:16Z</time>
      </trkpt>
      <trkpt lat="48.03642" lon="7.01271">
        <ele>1315.0050048828</ele>
        <time>2018-02-16T13:48:31Z</time>
      </trkpt>
      <trkpt lat="48.03636" lon="7.01265">
        <ele>1314.0050048828</ele>
        <time>2018-02-16T13:48:39Z</time>
      </trkpt>
      <trkpt lat="48.0363" lon="7.01259">
        <ele>1310.0050048828</ele>
        <time>2018-02-16T13:48:52Z</time>
      </trkpt>
      <trkpt lat="48.03624" lon="7.01252">
        <ele>1310.0050048828</ele>
        <time>2018-02-16T13:48:58Z</time>
      </trkpt>
      <trkpt lat="48.03617" lon="7.01247">
        <ele>1309.0050048828</ele>
        <time>2018-02-16T13:49:05Z</time>
      </trkpt>
      <trkpt lat="48.0361" lon="7.01241">
        <ele>1307.0050048828</ele>
        <time>2018-02-16T13:49:13Z</time>
      </trkpt>
      <trkpt lat="48.03604" lon="7.01234">
        <ele>1306.0050048828</ele>
        <time>2018-02-16T13:49:24Z</time>
      </trkpt>
      <trkpt lat="48.036" lon="7.01225">
        <ele>1305.0050048828</ele>
        <time>2018-02-16T13:49:32Z</time>
      </trkpt>
      <trkpt lat="48.03595" lon="7.01217">
        <ele>1304.0050048828</ele>
        <time>2018-02-16T13:49:41Z</time>
      </trkpt>
      <trkpt lat="48.03588" lon="7.0121">
        <ele>1303.0050048828</ele>
        <time>2018-02-16T13:49:48Z</time>
      </trkpt>
      <trkpt lat="48.03582" lon="7.01203">
        <ele>1301.0050048828</ele>
        <time>2018-02-16T13:49:55Z</time>
      </trkpt>
      <trkpt lat="48.03574" lon="7.01199">
        <ele>1300.0050048828</ele>
        <time>2018-02-16T13:50:02Z</time>
      </trkpt>
      <trkpt lat="48.03567" lon="7.01193">
        <ele>1298.0050048828</ele>
        <time>2018-02-16T13:50:09Z</time>
      </trkpt>
      <trkpt lat="48.03561" lon="7.01186">
        <ele>1296.0050048828</ele>
        <time>2018-02-16T13:50:16Z</time>
      </trkpt>
      <trkpt lat="48.03554" lon="7.01182">
        <ele>1292.0050048828</ele>
        <time>2018-02-16T13:50:40Z</time>
      </trkpt>
      <trkpt lat="48.03547" lon="7.01178">
        <ele>1289.0050048828</ele>
        <time>2018-02-16T13:50:52Z</time>
      </trkpt>
      <trkpt lat="48.03542" lon="7.0117">
        <ele>1287.0050048828</ele>
        <time>2018-02-16T13:50:59Z</time>
      </trkpt>
      <trkpt lat="48.03537" lon="7.01162">
        <ele>1286.0050048828</ele>
        <time>2018-02-16T13:51:05Z</time>
      </trkpt>
      <trkpt lat="48.03532" lon="7.01153">
        <ele>1286.0050048828</ele>
        <time>2018-02-16T13:51:12Z</time>
      </trkpt>
      <trkpt lat="48.03527" lon="7.01145">
        <ele>1285.0050048828</ele>
        <time>2018-02-16T13:51:19Z</time>
      </trkpt>
      <trkpt lat="48.03522" lon="7.01136">
        <ele>1283.0050048828</ele>
        <time>2018-02-16T13:51:26Z</time>
      </trkpt>
      <trkpt lat="48.03517" lon="7.01127">
        <ele>1282.0050048828</ele>
        <time>2018-02-16T13:51:34Z</time>
      </trkpt>
      <trkpt lat="48.03513" lon="7.01116">
        <ele>1281.0050048828</ele>
        <time>2018-02-16T13:51:42Z</time>
      </trkpt>
      <trkpt lat="48.03507" lon="7.0111">
        <ele>1281.0050048828</ele>
        <time>2018-02-16T13:51:58Z</time>
      </trkpt>
      <trkpt lat="48.03501" lon="7.01103">
        <ele>1281.0050048828</ele>
        <time>2018-02-16T13:52:11Z</time>
      </trkpt>
      <trkpt lat="48.03495" lon="7.01097">
        <ele>1280.0050048828</ele>
        <time>2018-02-16T13:52:19Z</time>
      </trkpt>
      <trkpt lat="48.03491" lon="7.01087">
        <ele>1280.0050048828</ele>
        <time>2018-02-16T13:52:27Z</time>
      </trkpt>
      <trkpt lat="48.03488" lon="7.01075">
        <ele>1280.0050048828</ele>
        <time>2018-02-16T13:52:35Z</time>
      </trkpt>
      <trkpt lat="48.03487" lon="7.01065">
        <ele>1280.0050048828</ele>
        <time>2018-02-16T13:53:21Z</time>
      </trkpt>
      <trkpt lat="48.03489" lon="7.01054">
        <ele>1280.0050048828</ele>
        <time>2018-02-16T13:53:36Z</time>
      </trkpt>
      <trkpt lat="48.03491" lon="7.01043">
        <ele>1280.0050048828</ele>
        <time>2018-02-16T13:53:43Z</time>
      </trkpt>
      <trkpt lat="48.03495" lon="7.01033">
        <ele>1279.0050048828</ele>
        <time>2018-02-16T13:54:01Z</time>
      </trkpt>
      <trkpt lat="48.035" lon="7.01023">
        <ele>1278.0050048828</ele>
        <time>2018-02-16T13:54:08Z</time>
      </trkpt>
      <trkpt lat="48.03504" lon="7.01014">
        <ele>1277.0050048828</ele>
        <time>2018-02-16T13:54:20Z</time>
      </trkpt>
      <trkpt lat="48.03507" lon="7.01003">
        <ele>1276.0050048828</ele>
        <time>2018-02-16T13:55:11Z</time>
      </trkpt>
      <trkpt lat="48.03511" lon="7.00994">
        <ele>1274.0050048828</ele>
        <time>2018-02-16T13:55:18Z</time>
      </trkpt>
      <trkpt lat="48.03516" lon="7.00984">
        <ele>1273.0050048828</ele>
        <time>2018-02-16T13:55:26Z</time>
      </trkpt>
      <trkpt lat="48.03522" lon="7.00977">
        <ele>1272.0050048828</ele>
        <time>2018-02-16T13:55:33Z</time>
      </trkpt>
      <trkpt lat="48.03527" lon="7.00968">
        <ele>1271.0050048828</ele>
        <time>2018-02-16T13:55:41Z</time>
      </trkpt>
      <trkpt lat="48.03532" lon="7.0096">
        <ele>1268.0050048828</ele>
        <time>2018-02-16T13:55:49Z</time>
      </trkpt>
      <trkpt lat="48.03537" lon="7.0095">
        <ele>1267.0050048828</ele>
        <time>2018-02-16T13:55:56Z</time>
      </trkpt>
      <trkpt lat="48.03541" lon="7.00941">
        <ele>1265.0050048828</ele>
        <time>2018-02-16T13:56:02Z</time>
      </trkpt>
      <trkpt lat="48.03546" lon="7.00933">
        <ele>1264.0050048828</ele>
        <time>2018-02-16T13:56:09Z</time>
      </trkpt>
      <trkpt lat="48.0355" lon="7.00924">
        <ele>1263.0050048828</ele>
        <time>2018-02-16T13:56:15Z</time>
      </trkpt>
      <trkpt lat="48.03555" lon="7.00915">
        <ele>1262.0050048828</ele>
        <time>2018-02-16T13:56:23Z</time>
      </trkpt>
      <trkpt lat="48.0356" lon="7.00906">
        <ele>1261.0050048828</ele>
        <time>2018-02-16T13:56:32Z</time>
      </trkpt>
      <trkpt lat="48.03565" lon="7.00898">
        <ele>1258.0050048828</ele>
        <time>2018-02-16T13:56:51Z</time>
      </trkpt>
      <trkpt lat="48.03571" lon="7.00889">
        <ele>1258.0050048828</ele>
        <time>2018-02-16T13:57:03Z</time>
      </trkpt>
      <trkpt lat="48.03576" lon="7.00881">
        <ele>1257.0050048828</ele>
        <time>2018-02-16T13:57:10Z</time>
      </trkpt>
      <trkpt lat="48.0358" lon="7.0087">
        <ele>1255.0050048828</ele>
        <time>2018-02-16T13:57:17Z</time>
      </trkpt>
      <trkpt lat="48.03584" lon="7.0086">
        <ele>1253.0050048828</ele>
        <time>2018-02-16T13:57:23Z</time>
      </trkpt>
      <trkpt lat="48.03588" lon="7.0085">
        <ele>1252.0050048828</ele>
        <time>2018-02-16T13:57:30Z</time>
      </trkpt>
      <trkpt lat="48.0359" lon="7.0084">
        <ele>1251.0050048828</ele>
        <time>2018-02-16T13:57:37Z</time>
      </trkpt>
      <trkpt lat="48.03592" lon="7.00829">
        <ele>1249.0050048828</ele>
        <time>2018-02-16T13:57:45Z</time>
      </trkpt>
      <trkpt lat="48.03584" lon="7.00829">
        <ele>1248.0050048828</ele>
        <time>2018-02-16T13:58:26Z</time>
      </trkpt>
      <trkpt lat="48.03592" lon="7.00823">
        <ele>1246.0050048828</ele>
        <time>2018-02-16T15:03:28Z</time>
      </trkpt>
      <trkpt lat="48.03593" lon="7.00834">
        <ele>1248.0050048828</ele>
        <time>2018-02-16T15:03:43Z</time>
      </trkpt>
      <trkpt lat="48.036" lon="7.00838">
        <ele>1254.0050048828</ele>
        <time>2018-02-16T15:06:00Z</time>
      </trkpt>
      <trkpt lat="48.03608" lon="7.00839">
        <ele>1254.0050048828</ele>
        <time>2018-02-16T15:06:12Z</time>
      </trkpt>
      <trkpt lat="48.03614" lon="7.00843">
        <ele>1253.0050048828</ele>
        <time>2018-02-16T15:06:23Z</time>
      </trkpt>
      <trkpt lat="48.03622" lon="7.00847">
        <ele>1255.0050048828</ele>
        <time>2018-02-16T15:06:31Z</time>
      </trkpt>
      <trkpt lat="48.03628" lon="7.00853">
        <ele>1255.0050048828</ele>
        <time>2018-02-16T15:06:38Z</time>
      </trkpt>
      <trkpt lat="48.03635" lon="7.00857">
        <ele>1256.0050048828</ele>
        <time>2018-02-16T15:06:45Z</time>
      </trkpt>
      <trkpt lat="48.03642" lon="7.00861">
        <ele>1257.0050048828</ele>
        <time>2018-02-16T15:06:53Z</time>
      </trkpt>
      <trkpt lat="48.03649" lon="7.00864">
        <ele>1258.0050048828</ele>
        <time>2018-02-16T15:07:01Z</time>
      </trkpt>
      <trkpt lat="48.03656" lon="7.00869">
        <ele>1259.0050048828</ele>
        <time>2018-02-16T15:07:10Z</time>
      </trkpt>
      <trkpt lat="48.03663" lon="7.00873">
        <ele>1259.0050048828</ele>
        <time>2018-02-16T15:07:20Z</time>
      </trkpt>
      <trkpt lat="48.0367" lon="7.00879">
        <ele>1261.0050048828</ele>
        <time>2018-02-16T15:07:30Z</time>
      </trkpt>
      <trkpt lat="48.03677" lon="7.00884">
        <ele>1262.0050048828</ele>
        <time>2018-02-16T15:07:39Z</time>
      </trkpt>
      <trkpt lat="48.03684" lon="7.00887">
        <ele>1263.0059814453</ele>
        <time>2018-02-16T15:07:48Z</time>
      </trkpt>
      <trkpt lat="48.03691" lon="7.00891">
        <ele>1262.0059814453</ele>
        <time>2018-02-16T15:07:58Z</time>
      </trkpt>
      <trkpt lat="48.03698" lon="7.00894">
        <ele>1262.0059814453</ele>
        <time>2018-02-16T15:08:08Z</time>
      </trkpt>
      <trkpt lat="48.03705" lon="7.00899">
        <ele>1261.0059814453</ele>
        <time>2018-02-16T15:08:17Z</time>
      </trkpt>
      <trkpt lat="48.03712" lon="7.00905">
        <ele>1262.0059814453</ele>
        <time>2018-02-16T15:08:27Z</time>
      </trkpt>
      <trkpt lat="48.03718" lon="7.0091">
        <ele>1263.0059814453</ele>
        <time>2018-02-16T15:08:36Z</time>
      </trkpt>
      <trkpt lat="48.03725" lon="7.00914">
        <ele>1264.0059814453</ele>
        <time>2018-02-16T15:08:47Z</time>
      </trkpt>
      <trkpt lat="48.03732" lon="7.00921">
        <ele>1265.0059814453</ele>
        <time>2018-02-16T15:08:59Z</time>
      </trkpt>
      <trkpt lat="48.03739" lon="7.00923">
        <ele>1267.0059814453</ele>
        <time>2018-02-16T15:09:07Z</time>
      </trkpt>
      <trkpt lat="48.03746" lon="7.00927">
        <ele>1266.0059814453</ele>
        <time>2018-02-16T15:09:19Z</time>
      </trkpt>
      <trkpt lat="48.03753" lon="7.00931">
        <ele>1267.0059814453</ele>
        <time>2018-02-16T15:10:15Z</time>
      </trkpt>
      <trkpt lat="48.0376" lon="7.00935">
        <ele>1267.0059814453</ele>
        <time>2018-02-16T15:10:24Z</time>
      </trkpt>
      <trkpt lat="48.03767" lon="7.00939">
        <ele>1267.0059814453</ele>
        <time>2018-02-16T15:10:43Z</time>
      </trkpt>
      <trkpt lat="48.03774" lon="7.00942">
        <ele>1268.0059814453</ele>
        <time>2018-02-16T15:10:53Z</time>
      </trkpt>
      <trkpt lat="48.03782" lon="7.00946">
        <ele>1269.0059814453</ele>
        <time>2018-02-16T15:11:03Z</time>
      </trkpt>
      <trkpt lat="48.03789" lon="7.00951">
        <ele>1269.0059814453</ele>
        <time>2018-02-16T15:11:13Z</time>
      </trkpt>
      <trkpt lat="48.03796" lon="7.00956">
        <ele>1271.0059814453</ele>
        <time>2018-02-16T15:11:22Z</time>
      </trkpt>
      <trkpt lat="48.03803" lon="7.0096">
        <ele>1272.0059814453</ele>
        <time>2018-02-16T15:11:30Z</time>
      </trkpt>
      <trkpt lat="48.0381" lon="7.00963">
        <ele>1272.0059814453</ele>
        <time>2018-02-16T15:11:39Z</time>
      </trkpt>
      <trkpt lat="48.03818" lon="7.00969">
        <ele>1273.0059814453</ele>
        <time>2018-02-16T15:11:48Z</time>
      </trkpt>
      <trkpt lat="48.03825" lon="7.00972">
        <ele>1274.0059814453</ele>
        <time>2018-02-16T15:11:56Z</time>
      </trkpt>
      <trkpt lat="48.03832" lon="7.00976">
        <ele>1275.0059814453</ele>
        <time>2018-02-16T15:12:05Z</time>
      </trkpt>
      <trkpt lat="48.03839" lon="7.00979">
        <ele>1277.0059814453</ele>
        <time>2018-02-16T15:12:14Z</time>
      </trkpt>
      <trkpt lat="48.03846" lon="7.00981">
        <ele>1277.0059814453</ele>
        <time>2018-02-16T15:12:24Z</time>
      </trkpt>
      <trkpt lat="48.03855" lon="7.00982">
        <ele>1278.0059814453</ele>
        <time>2018-02-16T15:12:32Z</time>
      </trkpt>
      <trkpt lat="48.03862" lon="7.00982">
        <ele>1278.0059814453</ele>
        <time>2018-02-16T15:12:50Z</time>
      </trkpt>
      <trkpt lat="48.03869" lon="7.00982">
        <ele>1278.0059814453</ele>
        <time>2018-02-16T15:12:57Z</time>
      </trkpt>
      <trkpt lat="48.03876" lon="7.00983">
        <ele>1278.0059814453</ele>
        <time>2018-02-16T15:13:05Z</time>
      </trkpt>
      <trkpt lat="48.03884" lon="7.00983">
        <ele>1277.0059814453</ele>
        <time>2018-02-16T15:13:13Z</time>
      </trkpt>
      <trkpt lat="48.03892" lon="7.00982">
        <ele>1277.0059814453</ele>
        <time>2018-02-16T15:13:22Z</time>
      </trkpt>
      <trkpt lat="48.03899" lon="7.00981">
        <ele>1276.0059814453</ele>
        <time>2018-02-16T15:13:30Z</time>
      </trkpt>
      <trkpt lat="48.03907" lon="7.0098">
        <ele>1276.0059814453</ele>
        <time>2018-02-16T15:13:38Z</time>
      </trkpt>
      <trkpt lat="48.03915" lon="7.0098">
        <ele>1275.0059814453</ele>
        <time>2018-02-16T15:13:47Z</time>
      </trkpt>
      <trkpt lat="48.03923" lon="7.0098">
        <ele>1275.0059814453</ele>
        <time>2018-02-16T15:13:55Z</time>
      </trkpt>
      <trkpt lat="48.03931" lon="7.0098">
        <ele>1275.0059814453</ele>
        <time>2018-02-16T15:14:04Z</time>
      </trkpt>
      <trkpt lat="48.03938" lon="7.00979">
        <ele>1274.0059814453</ele>
        <time>2018-02-16T15:14:11Z</time>
      </trkpt>
      <trkpt lat="48.03946" lon="7.00978">
        <ele>1274.0059814453</ele>
        <time>2018-02-16T15:14:19Z</time>
      </trkpt>
      <trkpt lat="48.03953" lon="7.00976">
        <ele>1275.0059814453</ele>
        <time>2018-02-16T15:14:27Z</time>
      </trkpt>
      <trkpt lat="48.03961" lon="7.00975">
        <ele>1275.0059814453</ele>
        <time>2018-02-16T15:14:35Z</time>
      </trkpt>
      <trkpt lat="48.03969" lon="7.00975">
        <ele>1274.0059814453</ele>
        <time>2018-02-16T15:14:43Z</time>
      </trkpt>
      <trkpt lat="48.03977" lon="7.00973">
        <ele>1274.0059814453</ele>
        <time>2018-02-16T15:14:56Z</time>
      </trkpt>
      <trkpt lat="48.03985" lon="7.00971">
        <ele>1273.0059814453</ele>
        <time>2018-02-16T15:15:05Z</time>
      </trkpt>
      <trkpt lat="48.03993" lon="7.0097">
        <ele>1273.0059814453</ele>
        <time>2018-02-16T15:15:13Z</time>
      </trkpt>
      <trkpt lat="48.04" lon="7.00966">
        <ele>1273.0059814453</ele>
        <time>2018-02-16T15:15:22Z</time>
      </trkpt>
      <trkpt lat="48.04008" lon="7.00963">
        <ele>1274.0059814453</ele>
        <time>2018-02-16T15:15:29Z</time>
      </trkpt>
      <trkpt lat="48.04015" lon="7.0096">
        <ele>1276.0059814453</ele>
        <time>2018-02-16T15:15:37Z</time>
      </trkpt>
      <trkpt lat="48.04021" lon="7.00955">
        <ele>1276.0059814453</ele>
        <time>2018-02-16T15:15:45Z</time>
      </trkpt>
      <trkpt lat="48.04027" lon="7.00947">
        <ele>1275.0059814453</ele>
        <time>2018-02-16T15:15:54Z</time>
      </trkpt>
      <trkpt lat="48.04034" lon="7.00941">
        <ele>1272.0059814453</ele>
        <time>2018-02-16T15:16:14Z</time>
      </trkpt>
      <trkpt lat="48.0404" lon="7.00936">
        <ele>1272.0059814453</ele>
        <time>2018-02-16T15:16:26Z</time>
      </trkpt>
      <trkpt lat="48.04047" lon="7.00929">
        <ele>1272.0059814453</ele>
        <time>2018-02-16T15:16:34Z</time>
      </trkpt>
      <trkpt lat="48.04053" lon="7.00923">
        <ele>1274.0059814453</ele>
        <time>2018-02-16T15:16:42Z</time>
      </trkpt>
      <trkpt lat="48.0406" lon="7.00917">
        <ele>1273.0059814453</ele>
        <time>2018-02-16T15:16:52Z</time>
      </trkpt>
      <trkpt lat="48.04065" lon="7.0091">
        <ele>1274.0059814453</ele>
        <time>2018-02-16T15:17:01Z</time>
      </trkpt>
      <trkpt lat="48.0407" lon="7.00902">
        <ele>1275.0059814453</ele>
        <time>2018-02-16T15:17:09Z</time>
      </trkpt>
      <trkpt lat="48.04076" lon="7.00894">
        <ele>1275.0059814453</ele>
        <time>2018-02-16T15:17:17Z</time>
      </trkpt>
      <trkpt lat="48.04081" lon="7.00886">
        <ele>1275.0059814453</ele>
        <time>2018-02-16T15:17:25Z</time>
      </trkpt>
      <trkpt lat="48.04087" lon="7.0088">
        <ele>1275.0059814453</ele>
        <time>2018-02-16T15:17:36Z</time>
      </trkpt>
      <trkpt lat="48.04094" lon="7.00877">
        <ele>1278.0059814453</ele>
        <time>2018-02-16T15:17:45Z</time>
      </trkpt>
      <trkpt lat="48.04101" lon="7.00872">
        <ele>1279.0059814453</ele>
        <time>2018-02-16T15:17:53Z</time>
      </trkpt>
      <trkpt lat="48.04106" lon="7.00865">
        <ele>1278.0059814453</ele>
        <time>2018-02-16T15:18:05Z</time>
      </trkpt>
      <trkpt lat="48.04112" lon="7.00858">
        <ele>1278.0059814453</ele>
        <time>2018-02-16T15:18:17Z</time>
      </trkpt>
      <trkpt lat="48.04118" lon="7.0085">
        <ele>1280.0059814453</ele>
        <time>2018-02-16T15:18:28Z</time>
      </trkpt>
      <trkpt lat="48.04123" lon="7.00843">
        <ele>1281.0059814453</ele>
        <time>2018-02-16T15:18:40Z</time>
      </trkpt>
      <trkpt lat="48.04129" lon="7.00836">
        <ele>1282.0059814453</ele>
        <time>2018-02-16T15:18:49Z</time>
      </trkpt>
      <trkpt lat="48.04135" lon="7.00829">
        <ele>1284.0059814453</ele>
        <time>2018-02-16T15:18:58Z</time>
      </trkpt>
      <trkpt lat="48.04141" lon="7.00822">
        <ele>1285.0059814453</ele>
        <time>2018-02-16T15:19:22Z</time>
      </trkpt>
      <trkpt lat="48.04149" lon="7.00818">
        <ele>1286.0059814453</ele>
        <time>2018-02-16T15:19:32Z</time>
      </trkpt>
      <trkpt lat="48.04155" lon="7.00811">
        <ele>1287.0059814453</ele>
        <time>2018-02-16T15:19:46Z</time>
      </trkpt>
      <trkpt lat="48.04161" lon="7.00805">
        <ele>1288.0059814453</ele>
        <time>2018-02-16T15:19:54Z</time>
      </trkpt>
      <trkpt lat="48.04168" lon="7.008">
        <ele>1289.0059814453</ele>
        <time>2018-02-16T15:20:01Z</time>
      </trkpt>
      <trkpt lat="48.04175" lon="7.00797">
        <ele>1290.0059814453</ele>
        <time>2018-02-16T15:20:08Z</time>
      </trkpt>
      <trkpt lat="48.04183" lon="7.00794">
        <ele>1291.0059814453</ele>
        <time>2018-02-16T15:20:15Z</time>
      </trkpt>
      <trkpt lat="48.0419" lon="7.00793">
        <ele>1293.0059814453</ele>
        <time>2018-02-16T15:20:23Z</time>
      </trkpt>
      <trkpt lat="48.04198" lon="7.00794">
        <ele>1294.0059814453</ele>
        <time>2018-02-16T15:20:30Z</time>
      </trkpt>
      <trkpt lat="48.04206" lon="7.00795">
        <ele>1295.0059814453</ele>
        <time>2018-02-16T15:20:38Z</time>
      </trkpt>
      <trkpt lat="48.04213" lon="7.00798">
        <ele>1295.0059814453</ele>
        <time>2018-02-16T15:20:45Z</time>
      </trkpt>
      <trkpt lat="48.04221" lon="7.00801">
        <ele>1296.0059814453</ele>
        <time>2018-02-16T15:20:54Z</time>
      </trkpt>
      <trkpt lat="48.04228" lon="7.00803">
        <ele>1296.0059814453</ele>
        <time>2018-02-16T15:21:44Z</time>
      </trkpt>
      <trkpt lat="48.04235" lon="7.00801">
        <ele>1295.0059814453</ele>
        <time>2018-02-16T15:21:51Z</time>
      </trkpt>
      <trkpt lat="48.04243" lon="7.00802">
        <ele>1297.0059814453</ele>
        <time>2018-02-16T15:22:00Z</time>
      </trkpt>
      <trkpt lat="48.0425" lon="7.00802">
        <ele>1297.0059814453</ele>
        <time>2018-02-16T15:22:06Z</time>
      </trkpt>
      <trkpt lat="48.04258" lon="7.00803">
        <ele>1296.0059814453</ele>
        <time>2018-02-16T15:22:13Z</time>
      </trkpt>
      <trkpt lat="48.04265" lon="7.00806">
        <ele>1297.0059814453</ele>
        <time>2018-02-16T15:22:22Z</time>
      </trkpt>
      <trkpt lat="48.04272" lon="7.00809">
        <ele>1298.0059814453</ele>
        <time>2018-02-16T15:22:30Z</time>
      </trkpt>
      <trkpt lat="48.0428" lon="7.00811">
        <ele>1298.0059814453</ele>
        <time>2018-02-16T15:22:40Z</time>
      </trkpt>
      <trkpt lat="48.04287" lon="7.0081">
        <ele>1298.0059814453</ele>
        <time>2018-02-16T15:22:48Z</time>
      </trkpt>
      <trkpt lat="48.04295" lon="7.00813">
        <ele>1297.0059814453</ele>
        <time>2018-02-16T15:22:56Z</time>
      </trkpt>
      <trkpt lat="48.04302" lon="7.00815">
        <ele>1298.0059814453</ele>
        <time>2018-02-16T15:23:03Z</time>
      </trkpt>
      <trkpt lat="48.0431" lon="7.00815">
        <ele>1298.0059814453</ele>
        <time>2018-02-16T15:23:09Z</time>
      </trkpt>
      <trkpt lat="48.04318" lon="7.00816">
        <ele>1298.0059814453</ele>
        <time>2018-02-16T15:23:17Z</time>
      </trkpt>
      <trkpt lat="48.04326" lon="7.00819">
        <ele>1298.0059814453</ele>
        <time>2018-02-16T15:23:24Z</time>
      </trkpt>
      <trkpt lat="48.04333" lon="7.00822">
        <ele>1299.0059814453</ele>
        <time>2018-02-16T15:23:31Z</time>
      </trkpt>
      <trkpt lat="48.04339" lon="7.00827">
        <ele>1297.0059814453</ele>
        <time>2018-02-16T15:23:39Z</time>
      </trkpt>
      <trkpt lat="48.04345" lon="7.00833">
        <ele>1297.0069580078</ele>
        <time>2018-02-16T15:23:47Z</time>
      </trkpt>
      <trkpt lat="48.04351" lon="7.0084">
        <ele>1298.0069580078</ele>
        <time>2018-02-16T15:23:55Z</time>
      </trkpt>
      <trkpt lat="48.04355" lon="7.0085">
        <ele>1298.0069580078</ele>
        <time>2018-02-16T15:24:03Z</time>
      </trkpt>
      <trkpt lat="48.04358" lon="7.0086">
        <ele>1299.0069580078</ele>
        <time>2018-02-16T15:24:12Z</time>
      </trkpt>
      <trkpt lat="48.04361" lon="7.0087">
        <ele>1300.0069580078</ele>
        <time>2018-02-16T15:24:21Z</time>
      </trkpt>
      <trkpt lat="48.04365" lon="7.00879">
        <ele>1298.0069580078</ele>
        <time>2018-02-16T15:25:21Z</time>
      </trkpt>
      <trkpt lat="48.04369" lon="7.00889">
        <ele>1298.0069580078</ele>
        <time>2018-02-16T15:25:29Z</time>
      </trkpt>
      <trkpt lat="48.04374" lon="7.00898">
        <ele>1299.0069580078</ele>
        <time>2018-02-16T15:25:36Z</time>
      </trkpt>
      <trkpt lat="48.04378" lon="7.00908">
        <ele>1299.0069580078</ele>
        <time>2018-02-16T15:25:43Z</time>
      </trkpt>
      <trkpt lat="48.04382" lon="7.00917">
        <ele>1300.0069580078</ele>
        <time>2018-02-16T15:25:51Z</time>
      </trkpt>
      <trkpt lat="48.04385" lon="7.00927">
        <ele>1299.0069580078</ele>
        <time>2018-02-16T15:26:05Z</time>
      </trkpt>
      <trkpt lat="48.04388" lon="7.00936">
        <ele>1300.0069580078</ele>
        <time>2018-02-16T15:26:12Z</time>
      </trkpt>
      <trkpt lat="48.04391" lon="7.00948">
        <ele>1299.0069580078</ele>
        <time>2018-02-16T15:26:20Z</time>
      </trkpt>
      <trkpt lat="48.04393" lon="7.00958">
        <ele>1300.0069580078</ele>
        <time>2018-02-16T15:26:28Z</time>
      </trkpt>
      <trkpt lat="48.04394" lon="7.0097">
        <ele>1300.0069580078</ele>
        <time>2018-02-16T15:26:36Z</time>
      </trkpt>
      <trkpt lat="48.04397" lon="7.00981">
        <ele>1301.0069580078</ele>
        <time>2018-02-16T15:26:44Z</time>
      </trkpt>
      <trkpt lat="48.04399" lon="7.00992">
        <ele>1302.0069580078</ele>
        <time>2018-02-16T15:26:53Z</time>
      </trkpt>
      <trkpt lat="48.044" lon="7.01004">
        <ele>1302.0069580078</ele>
        <time>2018-02-16T15:27:01Z</time>
      </trkpt>
      <trkpt lat="48.04402" lon="7.01016">
        <ele>1302.0069580078</ele>
        <time>2018-02-16T15:27:09Z</time>
      </trkpt>
      <trkpt lat="48.04404" lon="7.01027">
        <ele>1302.0069580078</ele>
        <time>2018-02-16T15:27:17Z</time>
      </trkpt>
      <trkpt lat="48.04407" lon="7.01037">
        <ele>1301.0069580078</ele>
        <time>2018-02-16T15:27:25Z</time>
      </trkpt>
      <trkpt lat="48.0441" lon="7.01048">
        <ele>1301.0069580078</ele>
        <time>2018-02-16T15:27:35Z</time>
      </trkpt>
      <trkpt lat="48.04414" lon="7.01062">
        <ele>1302.0069580078</ele>
        <time>2018-02-16T15:27:47Z</time>
      </trkpt>
      <trkpt lat="48.04418" lon="7.01072">
        <ele>1302.0069580078</ele>
        <time>2018-02-16T15:27:55Z</time>
      </trkpt>
      <trkpt lat="48.04421" lon="7.01082">
        <ele>1303.0069580078</ele>
        <time>2018-02-16T15:28:04Z</time>
      </trkpt>
      <trkpt lat="48.04425" lon="7.01093">
        <ele>1303.0069580078</ele>
        <time>2018-02-16T15:28:13Z</time>
      </trkpt>
      <trkpt lat="48.04429" lon="7.01102">
        <ele>1303.0069580078</ele>
        <time>2018-02-16T15:28:22Z</time>
      </trkpt>
      <trkpt lat="48.04432" lon="7.01112">
        <ele>1302.0069580078</ele>
        <time>2018-02-16T15:28:30Z</time>
      </trkpt>
      <trkpt lat="48.04434" lon="7.01123">
        <ele>1301.0069580078</ele>
        <time>2018-02-16T15:28:38Z</time>
      </trkpt>
      <trkpt lat="48.04439" lon="7.01132">
        <ele>1301.0069580078</ele>
        <time>2018-02-16T15:28:47Z</time>
      </trkpt>
      <trkpt lat="48.04443" lon="7.01141">
        <ele>1301.0069580078</ele>
        <time>2018-02-16T15:28:54Z</time>
      </trkpt>
      <trkpt lat="48.04449" lon="7.01148">
        <ele>1301.0069580078</ele>
        <time>2018-02-16T15:29:40Z</time>
      </trkpt>
      <trkpt lat="48.04453" lon="7.01158">
        <ele>1301.0069580078</ele>
        <time>2018-02-16T15:29:48Z</time>
      </trkpt>
      <trkpt lat="48.04456" lon="7.0117">
        <ele>1302.0069580078</ele>
        <time>2018-02-16T15:29:56Z</time>
      </trkpt>
      <trkpt lat="48.04458" lon="7.0118">
        <ele>1301.0069580078</ele>
        <time>2018-02-16T15:30:03Z</time>
      </trkpt>
      <trkpt lat="48.04462" lon="7.01191">
        <ele>1301.0069580078</ele>
        <time>2018-02-16T15:30:10Z</time>
      </trkpt>
      <trkpt lat="48.04466" lon="7.012">
        <ele>1301.0069580078</ele>
        <time>2018-02-16T15:30:16Z</time>
      </trkpt>
      <trkpt lat="48.04473" lon="7.01206">
        <ele>1300.0069580078</ele>
        <time>2018-02-16T15:30:23Z</time>
      </trkpt>
      <trkpt lat="48.04478" lon="7.01215">
        <ele>1299.0069580078</ele>
        <time>2018-02-16T15:30:30Z</time>
      </trkpt>
      <trkpt lat="48.04482" lon="7.01224">
        <ele>1299.0069580078</ele>
        <time>2018-02-16T15:30:36Z</time>
      </trkpt>
      <trkpt lat="48.04488" lon="7.01233">
        <ele>1296.0069580078</ele>
        <time>2018-02-16T15:30:43Z</time>
      </trkpt>
      <trkpt lat="48.04494" lon="7.0124">
        <ele>1295.0069580078</ele>
        <time>2018-02-16T15:31:36Z</time>
      </trkpt>
      <trkpt lat="48.04501" lon="7.01245">
        <ele>1294.0069580078</ele>
        <time>2018-02-16T15:31:49Z</time>
      </trkpt>
      <trkpt lat="48.04507" lon="7.01252">
        <ele>1293.0069580078</ele>
        <time>2018-02-16T15:31:56Z</time>
      </trkpt>
      <trkpt lat="48.04512" lon="7.01261">
        <ele>1292.0069580078</ele>
        <time>2018-02-16T15:32:03Z</time>
      </trkpt>
      <trkpt lat="48.04518" lon="7.01268">
        <ele>1291.0069580078</ele>
        <time>2018-02-16T15:32:10Z</time>
      </trkpt>
      <trkpt lat="48.04525" lon="7.01274">
        <ele>1290.0069580078</ele>
        <time>2018-02-16T15:32:32Z</time>
      </trkpt>
      <trkpt lat="48.04533" lon="7.01279">
        <ele>1289.0069580078</ele>
        <time>2018-02-16T15:32:41Z</time>
      </trkpt>
      <trkpt lat="48.04539" lon="7.01284">
        <ele>1289.0069580078</ele>
        <time>2018-02-16T15:32:51Z</time>
      </trkpt>
      <trkpt lat="48.04546" lon="7.01289">
        <ele>1288.0069580078</ele>
        <time>2018-02-16T15:33:00Z</time>
      </trkpt>
      <trkpt lat="48.04553" lon="7.01295">
        <ele>1287.0069580078</ele>
        <time>2018-02-16T15:33:10Z</time>
      </trkpt>
      <trkpt lat="48.0456" lon="7.01299">
        <ele>1287.0069580078</ele>
        <time>2018-02-16T15:33:18Z</time>
      </trkpt>
      <trkpt lat="48.04567" lon="7.01304">
        <ele>1285.0069580078</ele>
        <time>2018-02-16T15:33:28Z</time>
      </trkpt>
      <trkpt lat="48.04574" lon="7.01309">
        <ele>1284.0069580078</ele>
        <time>2018-02-16T15:33:36Z</time>
      </trkpt>
      <trkpt lat="48.0458" lon="7.01314">
        <ele>1283.0069580078</ele>
        <time>2018-02-16T15:33:43Z</time>
      </trkpt>
      <trkpt lat="48.04587" lon="7.01319">
        <ele>1283.0069580078</ele>
        <time>2018-02-16T15:33:49Z</time>
      </trkpt>
      <trkpt lat="48.04594" lon="7.01324">
        <ele>1283.0069580078</ele>
        <time>2018-02-16T15:33:56Z</time>
      </trkpt>
      <trkpt lat="48.04602" lon="7.01329">
        <ele>1283.0069580078</ele>
        <time>2018-02-16T15:34:04Z</time>
      </trkpt>
      <trkpt lat="48.04608" lon="7.01335">
        <ele>1283.0069580078</ele>
        <time>2018-02-16T15:34:19Z</time>
      </trkpt>
      <trkpt lat="48.04615" lon="7.01339">
        <ele>1283.0069580078</ele>
        <time>2018-02-16T15:34:27Z</time>
      </trkpt>
      <trkpt lat="48.04623" lon="7.01345">
        <ele>1282.0069580078</ele>
        <time>2018-02-16T15:34:36Z</time>
      </trkpt>
      <trkpt lat="48.04629" lon="7.0135">
        <ele>1282.0069580078</ele>
        <time>2018-02-16T15:34:43Z</time>
      </trkpt>
      <trkpt lat="48.04636" lon="7.01354">
        <ele>1281.0069580078</ele>
        <time>2018-02-16T15:34:51Z</time>
      </trkpt>
      <trkpt lat="48.04643" lon="7.0136">
        <ele>1280.0069580078</ele>
        <time>2018-02-16T15:34:58Z</time>
      </trkpt>
      <trkpt lat="48.04648" lon="7.01369">
        <ele>1279.0069580078</ele>
        <time>2018-02-16T15:35:05Z</time>
      </trkpt>
      <trkpt lat="48.04655" lon="7.01374">
        <ele>1279.0069580078</ele>
        <time>2018-02-16T15:35:12Z</time>
      </trkpt>
      <trkpt lat="48.04661" lon="7.0138">
        <ele>1279.0069580078</ele>
        <time>2018-02-16T15:35:19Z</time>
      </trkpt>
      <trkpt lat="48.04668" lon="7.01387">
        <ele>1279.0069580078</ele>
        <time>2018-02-16T15:35:27Z</time>
      </trkpt>
      <trkpt lat="48.04673" lon="7.01395">
        <ele>1279.0069580078</ele>
        <time>2018-02-16T15:35:35Z</time>
      </trkpt>
      <trkpt lat="48.04679" lon="7.01402">
        <ele>1279.0069580078</ele>
        <time>2018-02-16T15:35:43Z</time>
      </trkpt>
      <trkpt lat="48.04685" lon="7.01409">
        <ele>1279.0069580078</ele>
        <time>2018-02-16T15:35:51Z</time>
      </trkpt>
      <trkpt lat="48.0469" lon="7.01418">
        <ele>1278.0069580078</ele>
        <time>2018-02-16T15:35:59Z</time>
      </trkpt>
      <trkpt lat="48.04696" lon="7.01426">
        <ele>1278.0069580078</ele>
        <time>2018-02-16T15:36:08Z</time>
      </trkpt>
      <trkpt lat="48.047" lon="7.01435">
        <ele>1278.0069580078</ele>
        <time>2018-02-16T15:36:16Z</time>
      </trkpt>
      <trkpt lat="48.04705" lon="7.01444">
        <ele>1278.0069580078</ele>
        <time>2018-02-16T15:36:25Z</time>
      </trkpt>
      <trkpt lat="48.04709" lon="7.01454">
        <ele>1278.0069580078</ele>
        <time>2018-02-16T15:36:34Z</time>
      </trkpt>
      <trkpt lat="48.04714" lon="7.01464">
        <ele>1278.0069580078</ele>
        <time>2018-02-16T15:36:43Z</time>
      </trkpt>
      <trkpt lat="48.04719" lon="7.01471">
        <ele>1278.0069580078</ele>
        <time>2018-02-16T15:36:51Z</time>
      </trkpt>
      <trkpt lat="48.04725" lon="7.01478">
        <ele>1278.0069580078</ele>
        <time>2018-02-16T15:36:59Z</time>
      </trkpt>
      <trkpt lat="48.0473" lon="7.01486">
        <ele>1277.0069580078</ele>
        <time>2018-02-16T15:37:18Z</time>
      </trkpt>
      <trkpt lat="48.04736" lon="7.01494">
        <ele>1276.0069580078</ele>
        <time>2018-02-16T15:37:26Z</time>
      </trkpt>
      <trkpt lat="48.04744" lon="7.01499">
        <ele>1275.0069580078</ele>
        <time>2018-02-16T15:37:34Z</time>
      </trkpt>
      <trkpt lat="48.04752" lon="7.01498">
        <ele>1274.0069580078</ele>
        <time>2018-02-16T15:37:44Z</time>
      </trkpt>
      <trkpt lat="48.04759" lon="7.01494">
        <ele>1275.0069580078</ele>
        <time>2018-02-16T15:38:00Z</time>
      </trkpt>
      <trkpt lat="48.04767" lon="7.01491">
        <ele>1274.0069580078</ele>
        <time>2018-02-16T15:38:08Z</time>
      </trkpt>
      <trkpt lat="48.04775" lon="7.01495">
        <ele>1272.0069580078</ele>
        <time>2018-02-16T15:38:15Z</time>
      </trkpt>
      <trkpt lat="48.04782" lon="7.01495">
        <ele>1272.0069580078</ele>
        <time>2018-02-16T15:38:35Z</time>
      </trkpt>
      <trkpt lat="48.04789" lon="7.01491">
        <ele>1272.0069580078</ele>
        <time>2018-02-16T15:38:44Z</time>
      </trkpt>
      <trkpt lat="48.04796" lon="7.01486">
        <ele>1271.0069580078</ele>
        <time>2018-02-16T15:38:50Z</time>
      </trkpt>
      <trkpt lat="48.04803" lon="7.01481">
        <ele>1270.0069580078</ele>
        <time>2018-02-16T15:38:57Z</time>
      </trkpt>
      <trkpt lat="48.04807" lon="7.01473">
        <ele>1269.0069580078</ele>
        <time>2018-02-16T15:39:11Z</time>
      </trkpt>
      <trkpt lat="48.04811" lon="7.01463">
        <ele>1268.0069580078</ele>
        <time>2018-02-16T15:39:18Z</time>
      </trkpt>
      <trkpt lat="48.04818" lon="7.01457">
        <ele>1268.0069580078</ele>
        <time>2018-02-16T15:39:32Z</time>
      </trkpt>
      <trkpt lat="48.04825" lon="7.01454">
        <ele>1267.0069580078</ele>
        <time>2018-02-16T15:39:45Z</time>
      </trkpt>
      <trkpt lat="48.04832" lon="7.01458">
        <ele>1266.0069580078</ele>
        <time>2018-02-16T15:39:52Z</time>
      </trkpt>
      <trkpt lat="48.04839" lon="7.01463">
        <ele>1263.0069580078</ele>
        <time>2018-02-16T15:40:31Z</time>
      </trkpt>
      <trkpt lat="48.04846" lon="7.01465">
        <ele>1261.0069580078</ele>
        <time>2018-02-16T15:40:38Z</time>
      </trkpt>
      <trkpt lat="48.04854" lon="7.01468">
        <ele>1259.0069580078</ele>
        <time>2018-02-16T15:40:45Z</time>
      </trkpt>
      <trkpt lat="48.04861" lon="7.01473">
        <ele>1258.0069580078</ele>
        <time>2018-02-16T15:40:52Z</time>
      </trkpt>
      <trkpt lat="48.04867" lon="7.01477">
        <ele>1257.0069580078</ele>
        <time>2018-02-16T15:40:58Z</time>
      </trkpt>
      <trkpt lat="48.04874" lon="7.0148">
        <ele>1257.0069580078</ele>
        <time>2018-02-16T15:41:03Z</time>
      </trkpt>
      <trkpt lat="48.04881" lon="7.01485">
        <ele>1258.0069580078</ele>
        <time>2018-02-16T15:41:10Z</time>
      </trkpt>
      <trkpt lat="48.04887" lon="7.01492">
        <ele>1257.0069580078</ele>
        <time>2018-02-16T15:41:18Z</time>
      </trkpt>
      <trkpt lat="48.04895" lon="7.01495">
        <ele>1253.0069580078</ele>
        <time>2018-02-16T15:41:28Z</time>
      </trkpt>
      <trkpt lat="48.04902" lon="7.01498">
        <ele>1252.0069580078</ele>
        <time>2018-02-16T15:41:33Z</time>
      </trkpt>
      <trkpt lat="48.04909" lon="7.01503">
        <ele>1250.0069580078</ele>
        <time>2018-02-16T15:41:40Z</time>
      </trkpt>
      <trkpt lat="48.04916" lon="7.0151">
        <ele>1249.0069580078</ele>
        <time>2018-02-16T15:41:48Z</time>
      </trkpt>
      <trkpt lat="48.04923" lon="7.01516">
        <ele>1248.0069580078</ele>
        <time>2018-02-16T15:41:57Z</time>
      </trkpt>
      <trkpt lat="48.0493" lon="7.01522">
        <ele>1246.0069580078</ele>
        <time>2018-02-16T15:42:06Z</time>
      </trkpt>
      <trkpt lat="48.04938" lon="7.01526">
        <ele>1244.0069580078</ele>
        <time>2018-02-16T15:42:14Z</time>
      </trkpt>
      <trkpt lat="48.04944" lon="7.01531">
        <ele>1238.0069580078</ele>
        <time>2018-02-16T15:42:23Z</time>
      </trkpt>
      <trkpt lat="48.04951" lon="7.01536">
        <ele>1234.0069580078</ele>
        <time>2018-02-16T15:42:32Z</time>
      </trkpt>
      <trkpt lat="48.04959" lon="7.01539">
        <ele>1235.0069580078</ele>
        <time>2018-02-16T15:42:45Z</time>
      </trkpt>
      <trkpt lat="48.04967" lon="7.01543">
        <ele>1238.0069580078</ele>
        <time>2018-02-16T15:42:52Z</time>
      </trkpt>
      <trkpt lat="48.04974" lon="7.01549">
        <ele>1240.0069580078</ele>
        <time>2018-02-16T15:42:58Z</time>
      </trkpt>
      <trkpt lat="48.04981" lon="7.01553">
        <ele>1242.0069580078</ele>
        <time>2018-02-16T15:43:03Z</time>
      </trkpt>
      <trkpt lat="48.04989" lon="7.01554">
        <ele>1243.0069580078</ele>
        <time>2018-02-16T15:43:08Z</time>
      </trkpt>
      <trkpt lat="48.04997" lon="7.01553">
        <ele>1245.0069580078</ele>
        <time>2018-02-16T15:43:14Z</time>
      </trkpt>
      <trkpt lat="48.05004" lon="7.01554">
        <ele>1245.0069580078</ele>
        <time>2018-02-16T15:43:20Z</time>
      </trkpt>
      <trkpt lat="48.05012" lon="7.01555">
        <ele>1244.0069580078</ele>
        <time>2018-02-16T15:43:33Z</time>
      </trkpt>
      <trkpt lat="48.05019" lon="7.0156">
        <ele>1243.0069580078</ele>
        <time>2018-02-16T15:43:40Z</time>
      </trkpt>
      <trkpt lat="48.05026" lon="7.01564">
        <ele>1239.0080566406</ele>
        <time>2018-02-16T15:43:48Z</time>
      </trkpt>
      <trkpt lat="48.05034" lon="7.01568">
        <ele>1240.0080566406</ele>
        <time>2018-02-16T15:43:54Z</time>
      </trkpt>
      <trkpt lat="48.05042" lon="7.01571">
        <ele>1240.0080566406</ele>
        <time>2018-02-16T15:44:00Z</time>
      </trkpt>
      <trkpt lat="48.0505" lon="7.01574">
        <ele>1241.0080566406</ele>
        <time>2018-02-16T15:44:06Z</time>
      </trkpt>
      <trkpt lat="48.05057" lon="7.01582">
        <ele>1243.0080566406</ele>
        <time>2018-02-16T15:44:16Z</time>
      </trkpt>
      <trkpt lat="48.05064" lon="7.01582">
        <ele>1243.0080566406</ele>
        <time>2018-02-16T15:44:21Z</time>
      </trkpt>
      <trkpt lat="48.05072" lon="7.01582">
        <ele>1243.0080566406</ele>
        <time>2018-02-16T15:44:27Z</time>
      </trkpt>
      <trkpt lat="48.05101" lon="7.01579">
        <ele>1238.0080566406</ele>
        <time>2018-02-16T15:44:52Z</time>
      </trkpt>
      <trkpt lat="48.05108" lon="7.01579">
        <ele>1236.0080566406</ele>
        <time>2018-02-16T15:45:01Z</time>
      </trkpt>
      <trkpt lat="48.05117" lon="7.01579">
        <ele>1233.0080566406</ele>
        <time>2018-02-16T15:45:10Z</time>
      </trkpt>
      <trkpt lat="48.05125" lon="7.01578">
        <ele>1229.0080566406</ele>
        <time>2018-02-16T15:45:20Z</time>
      </trkpt>
      <trkpt lat="48.05132" lon="7.01582">
        <ele>1224.0080566406</ele>
        <time>2018-02-16T15:45:28Z</time>
      </trkpt>
      <trkpt lat="48.0514" lon="7.01588">
        <ele>1226.0080566406</ele>
        <time>2018-02-16T15:45:38Z</time>
      </trkpt>
      <trkpt lat="48.05148" lon="7.01591">
        <ele>1231.0080566406</ele>
        <time>2018-02-16T15:45:49Z</time>
      </trkpt>
      <trkpt lat="48.05155" lon="7.01594">
        <ele>1232.0080566406</ele>
        <time>2018-02-16T15:45:55Z</time>
      </trkpt>
      <trkpt lat="48.05161" lon="7.016">
        <ele>1233.0080566406</ele>
        <time>2018-02-16T15:46:01Z</time>
      </trkpt>
      <trkpt lat="48.05169" lon="7.01606">
        <ele>1233.0080566406</ele>
        <time>2018-02-16T15:46:09Z</time>
      </trkpt>
      <trkpt lat="48.05176" lon="7.01609">
        <ele>1235.0080566406</ele>
        <time>2018-02-16T15:46:15Z</time>
      </trkpt>
      <trkpt lat="48.05183" lon="7.01614">
        <ele>1235.0080566406</ele>
        <time>2018-02-16T15:46:22Z</time>
      </trkpt>
      <trkpt lat="48.05187" lon="7.01624">
        <ele>1236.0080566406</ele>
        <time>2018-02-16T15:46:31Z</time>
      </trkpt>
      <trkpt lat="48.05194" lon="7.01626">
        <ele>1234.0080566406</ele>
        <time>2018-02-16T15:47:10Z</time>
      </trkpt>
      <trkpt lat="48.05201" lon="7.01632">
        <ele>1232.0080566406</ele>
        <time>2018-02-16T15:47:44Z</time>
      </trkpt>
      <trkpt lat="48.05206" lon="7.0164">
        <ele>1232.0080566406</ele>
        <time>2018-02-16T15:47:52Z</time>
      </trkpt>
      <trkpt lat="48.05212" lon="7.01646">
        <ele>1232.0080566406</ele>
        <time>2018-02-16T15:48:00Z</time>
      </trkpt>
      <trkpt lat="48.05219" lon="7.01651">
        <ele>1231.0080566406</ele>
        <time>2018-02-16T15:48:10Z</time>
      </trkpt>
      <trkpt lat="48.05226" lon="7.01656">
        <ele>1233.0080566406</ele>
        <time>2018-02-16T15:48:17Z</time>
      </trkpt>
      <trkpt lat="48.05233" lon="7.01661">
        <ele>1235.0080566406</ele>
        <time>2018-02-16T15:48:24Z</time>
      </trkpt>
      <trkpt lat="48.0524" lon="7.01668">
        <ele>1236.0080566406</ele>
        <time>2018-02-16T15:48:33Z</time>
      </trkpt>
      <trkpt lat="48.05244" lon="7.01676">
        <ele>1237.0080566406</ele>
        <time>2018-02-16T15:48:40Z</time>
      </trkpt>
      <trkpt lat="48.05249" lon="7.01685">
        <ele>1237.0080566406</ele>
        <time>2018-02-16T15:48:49Z</time>
      </trkpt>
      <trkpt lat="48.05256" lon="7.01691">
        <ele>1237.0080566406</ele>
        <time>2018-02-16T15:48:57Z</time>
      </trkpt>
      <trkpt lat="48.0526" lon="7.017">
        <ele>1233.0080566406</ele>
        <time>2018-02-16T15:49:06Z</time>
      </trkpt>
      <trkpt lat="48.05265" lon="7.01708">
        <ele>1235.0080566406</ele>
        <time>2018-02-16T15:49:14Z</time>
      </trkpt>
      <trkpt lat="48.05271" lon="7.01714">
        <ele>1235.0080566406</ele>
        <time>2018-02-16T15:49:22Z</time>
      </trkpt>
      <trkpt lat="48.05276" lon="7.01723">
        <ele>1233.0080566406</ele>
        <time>2018-02-16T15:49:33Z</time>
      </trkpt>
      <trkpt lat="48.05282" lon="7.0173">
        <ele>1235.0080566406</ele>
        <time>2018-02-16T15:49:43Z</time>
      </trkpt>
      <trkpt lat="48.05287" lon="7.01738">
        <ele>1237.0080566406</ele>
        <time>2018-02-16T15:49:51Z</time>
      </trkpt>
      <trkpt lat="48.05295" lon="7.0174">
        <ele>1236.0080566406</ele>
        <time>2018-02-16T15:49:59Z</time>
      </trkpt>
      <trkpt lat="48.05302" lon="7.01742">
        <ele>1245.0080566406</ele>
        <time>2018-02-16T15:50:14Z</time>
      </trkpt>
      <trkpt lat="48.05306" lon="7.01751">
        <ele>1248.0080566406</ele>
        <time>2018-02-16T15:50:42Z</time>
      </trkpt>
      <trkpt lat="48.05314" lon="7.01753">
        <ele>1247.0080566406</ele>
        <time>2018-02-16T15:50:57Z</time>
      </trkpt>
      <trkpt lat="48.0532" lon="7.0176">
        <ele>1246.0080566406</ele>
        <time>2018-02-16T15:51:10Z</time>
      </trkpt>
      <trkpt lat="48.05327" lon="7.01763">
        <ele>1245.0080566406</ele>
        <time>2018-02-16T15:51:20Z</time>
      </trkpt>
      <trkpt lat="48.05333" lon="7.01769">
        <ele>1244.0080566406</ele>
        <time>2018-02-16T15:51:31Z</time>
      </trkpt>
      <trkpt lat="48.05339" lon="7.01776">
        <ele>1243.0080566406</ele>
        <time>2018-02-16T15:51:42Z</time>
      </trkpt>
      <trkpt lat="48.05346" lon="7.01781">
        <ele>1242.0080566406</ele>
        <time>2018-02-16T15:51:53Z</time>
      </trkpt>
      <trkpt lat="48.05352" lon="7.01785">
        <ele>1242.0080566406</ele>
        <time>2018-02-16T15:52:05Z</time>
      </trkpt>
      <trkpt lat="48.05359" lon="7.0179">
        <ele>1242.0080566406</ele>
        <time>2018-02-16T15:52:17Z</time>
      </trkpt>
      <trkpt lat="48.05367" lon="7.01795">
        <ele>1245.0080566406</ele>
        <time>2018-02-16T15:52:25Z</time>
      </trkpt>
      <trkpt lat="48.05376" lon="7.01796">
        <ele>1248.0080566406</ele>
        <time>2018-02-16T15:52:31Z</time>
      </trkpt>
      <trkpt lat="48.05384" lon="7.01799">
        <ele>1252.0080566406</ele>
        <time>2018-02-16T15:52:37Z</time>
      </trkpt>
      <trkpt lat="48.0539" lon="7.01803">
        <ele>1254.0080566406</ele>
        <time>2018-02-16T15:52:43Z</time>
      </trkpt>
      <trkpt lat="48.05398" lon="7.01807">
        <ele>1256.0080566406</ele>
        <time>2018-02-16T15:52:50Z</time>
      </trkpt>
      <trkpt lat="48.05404" lon="7.01814">
        <ele>1256.0080566406</ele>
        <time>2018-02-16T15:53:00Z</time>
      </trkpt>
      <trkpt lat="48.0541" lon="7.01819">
        <ele>1254.0080566406</ele>
        <time>2018-02-16T15:53:10Z</time>
      </trkpt>
      <trkpt lat="48.05418" lon="7.01818">
        <ele>1257.0080566406</ele>
        <time>2018-02-16T15:53:16Z</time>
      </trkpt>
      <trkpt lat="48.05426" lon="7.01822">
        <ele>1259.0080566406</ele>
        <time>2018-02-16T15:53:23Z</time>
      </trkpt>
      <trkpt lat="48.05433" lon="7.01826">
        <ele>1260.0080566406</ele>
        <time>2018-02-16T15:53:32Z</time>
      </trkpt>
      <trkpt lat="48.0544" lon="7.01833">
        <ele>1259.0080566406</ele>
        <time>2018-02-16T15:53:42Z</time>
      </trkpt>
      <trkpt lat="48.05447" lon="7.01836">
        <ele>1260.0080566406</ele>
        <time>2018-02-16T15:53:49Z</time>
      </trkpt>
      <trkpt lat="48.05453" lon="7.01843">
        <ele>1261.0080566406</ele>
        <time>2018-02-16T15:53:57Z</time>
      </trkpt>
      <trkpt lat="48.0546" lon="7.01847">
        <ele>1262.0080566406</ele>
        <time>2018-02-16T15:54:05Z</time>
      </trkpt>
      <trkpt lat="48.05468" lon="7.0185">
        <ele>1262.0080566406</ele>
        <time>2018-02-16T15:54:13Z</time>
      </trkpt>
      <trkpt lat="48.05476" lon="7.01855">
        <ele>1262.0080566406</ele>
        <time>2018-02-16T15:54:22Z</time>
      </trkpt>
      <trkpt lat="48.05482" lon="7.01861">
        <ele>1262.0080566406</ele>
        <time>2018-02-16T15:54:30Z</time>
      </trkpt>
      <trkpt lat="48.05489" lon="7.01864">
        <ele>1263.0080566406</ele>
        <time>2018-02-16T15:54:39Z</time>
      </trkpt>
      <trkpt lat="48.05496" lon="7.01866">
        <ele>1263.0080566406</ele>
        <time>2018-02-16T15:54:47Z</time>
      </trkpt>
      <trkpt lat="48.05502" lon="7.01875">
        <ele>1263.0080566406</ele>
        <time>2018-02-16T15:54:55Z</time>
      </trkpt>
      <trkpt lat="48.05507" lon="7.01883">
        <ele>1262.0080566406</ele>
        <time>2018-02-16T15:55:01Z</time>
      </trkpt>
      <trkpt lat="48.05514" lon="7.01889">
        <ele>1261.0080566406</ele>
        <time>2018-02-16T15:55:08Z</time>
      </trkpt>
      <trkpt lat="48.05521" lon="7.01894">
        <ele>1260.0080566406</ele>
        <time>2018-02-16T15:55:16Z</time>
      </trkpt>
      <trkpt lat="48.05528" lon="7.01898">
        <ele>1258.0080566406</ele>
        <time>2018-02-16T15:56:25Z</time>
      </trkpt>
      <trkpt lat="48.0554" lon="7.01913">
        <ele>1257.0080566406</ele>
        <time>2018-02-16T15:56:40Z</time>
      </trkpt>
      <trkpt lat="48.05546" lon="7.0192">
        <ele>1255.0080566406</ele>
        <time>2018-02-16T15:56:48Z</time>
      </trkpt>
      <trkpt lat="48.05553" lon="7.01925">
        <ele>1255.0080566406</ele>
        <time>2018-02-16T15:56:55Z</time>
      </trkpt>
      <trkpt lat="48.05559" lon="7.01931">
        <ele>1256.0080566406</ele>
        <time>2018-02-16T15:57:08Z</time>
      </trkpt>
      <trkpt lat="48.05567" lon="7.01935">
        <ele>1256.0080566406</ele>
        <time>2018-02-16T15:57:16Z</time>
      </trkpt>
      <trkpt lat="48.05574" lon="7.0194">
        <ele>1256.0080566406</ele>
        <time>2018-02-16T15:57:26Z</time>
      </trkpt>
      <trkpt lat="48.05581" lon="7.01945">
        <ele>1256.0080566406</ele>
        <time>2018-02-16T15:57:33Z</time>
      </trkpt>
      <trkpt lat="48.05587" lon="7.0195">
        <ele>1255.0080566406</ele>
        <time>2018-02-16T15:57:40Z</time>
      </trkpt>
      <trkpt lat="48.05594" lon="7.01955">
        <ele>1255.0080566406</ele>
        <time>2018-02-16T15:57:47Z</time>
      </trkpt>
      <trkpt lat="48.056" lon="7.01961">
        <ele>1254.0080566406</ele>
        <time>2018-02-16T15:57:54Z</time>
      </trkpt>
      <trkpt lat="48.05607" lon="7.01967">
        <ele>1253.0080566406</ele>
        <time>2018-02-16T15:58:01Z</time>
      </trkpt>
      <trkpt lat="48.05614" lon="7.0197">
        <ele>1253.0080566406</ele>
        <time>2018-02-16T15:58:10Z</time>
      </trkpt>
      <trkpt lat="48.05621" lon="7.01971">
        <ele>1251.0080566406</ele>
        <time>2018-02-16T15:58:17Z</time>
      </trkpt>
      <trkpt lat="48.05629" lon="7.01977">
        <ele>1251.0080566406</ele>
        <time>2018-02-16T15:58:24Z</time>
      </trkpt>
      <trkpt lat="48.05634" lon="7.01984">
        <ele>1249.0080566406</ele>
        <time>2018-02-16T15:58:30Z</time>
      </trkpt>
      <trkpt lat="48.05641" lon="7.0199">
        <ele>1250.0080566406</ele>
        <time>2018-02-16T15:58:37Z</time>
      </trkpt>
      <trkpt lat="48.05649" lon="7.01995">
        <ele>1249.0080566406</ele>
        <time>2018-02-16T15:58:45Z</time>
      </trkpt>
      <trkpt lat="48.05655" lon="7.02001">
        <ele>1249.0080566406</ele>
        <time>2018-02-16T15:58:51Z</time>
      </trkpt>
      <trkpt lat="48.0566" lon="7.0201">
        <ele>1251.0080566406</ele>
        <time>2018-02-16T15:58:58Z</time>
      </trkpt>
      <trkpt lat="48.0566" lon="7.02021">
        <ele>1248.0080566406</ele>
        <time>2018-02-16T15:59:05Z</time>
      </trkpt>
      <trkpt lat="48.0566" lon="7.02032">
        <ele>1246.0080566406</ele>
        <time>2018-02-16T15:59:11Z</time>
      </trkpt>
      <trkpt lat="48.05661" lon="7.02043">
        <ele>1245.0080566406</ele>
        <time>2018-02-16T15:59:17Z</time>
      </trkpt>
      <trkpt lat="48.05661" lon="7.02055">
        <ele>1245.0080566406</ele>
        <time>2018-02-16T15:59:24Z</time>
      </trkpt>
      <trkpt lat="48.05661" lon="7.02066">
        <ele>1245.0080566406</ele>
        <time>2018-02-16T15:59:46Z</time>
      </trkpt>
      <trkpt lat="48.05659" lon="7.02077">
        <ele>1245.0080566406</ele>
        <time>2018-02-16T15:59:53Z</time>
      </trkpt>
      <trkpt lat="48.05658" lon="7.02089">
        <ele>1245.0080566406</ele>
        <time>2018-02-16T16:00:01Z</time>
      </trkpt>
      <trkpt lat="48.05654" lon="7.02099">
        <ele>1244.0080566406</ele>
        <time>2018-02-16T16:00:08Z</time>
      </trkpt>
      <trkpt lat="48.05651" lon="7.02109">
        <ele>1244.0080566406</ele>
        <time>2018-02-16T16:00:14Z</time>
      </trkpt>
      <trkpt lat="48.05648" lon="7.02119">
        <ele>1244.0080566406</ele>
        <time>2018-02-16T16:00:21Z</time>
      </trkpt>
      <trkpt lat="48.05646" lon="7.0213">
        <ele>1244.0080566406</ele>
        <time>2018-02-16T16:00:26Z</time>
      </trkpt>
      <trkpt lat="48.05647" lon="7.02142">
        <ele>1242.0080566406</ele>
        <time>2018-02-16T16:00:34Z</time>
      </trkpt>
      <trkpt lat="48.05648" lon="7.02152">
        <ele>1241.0080566406</ele>
        <time>2018-02-16T16:00:44Z</time>
      </trkpt>
      <trkpt lat="48.05645" lon="7.02163">
        <ele>1244.0080566406</ele>
        <time>2018-02-16T16:01:21Z</time>
      </trkpt>
      <trkpt lat="48.05639" lon="7.02169">
        <ele>1242.0080566406</ele>
        <time>2018-02-16T16:01:27Z</time>
      </trkpt>
      <trkpt lat="48.05635" lon="7.0218">
        <ele>1242.0080566406</ele>
        <time>2018-02-16T16:01:34Z</time>
      </trkpt>
      <trkpt lat="48.05629" lon="7.02187">
        <ele>1242.0080566406</ele>
        <time>2018-02-16T16:01:40Z</time>
      </trkpt>
      <trkpt lat="48.05623" lon="7.02195">
        <ele>1243.0080566406</ele>
        <time>2018-02-16T16:01:46Z</time>
      </trkpt>
      <trkpt lat="48.05617" lon="7.02201">
        <ele>1241.0080566406</ele>
        <time>2018-02-16T16:01:53Z</time>
      </trkpt>
      <trkpt lat="48.05611" lon="7.02208">
        <ele>1243.0080566406</ele>
        <time>2018-02-16T16:02:02Z</time>
      </trkpt>
      <trkpt lat="48.05609" lon="7.02219">
        <ele>1241.0080566406</ele>
        <time>2018-02-16T16:02:21Z</time>
      </trkpt>
      <trkpt lat="48.05611" lon="7.0223">
        <ele>1241.0080566406</ele>
        <time>2018-02-16T16:02:28Z</time>
      </trkpt>
      <trkpt lat="48.05611" lon="7.02242">
        <ele>1241.0080566406</ele>
        <time>2018-02-16T16:02:36Z</time>
      </trkpt>
      <trkpt lat="48.05612" lon="7.02254">
        <ele>1241.0080566406</ele>
        <time>2018-02-16T16:02:47Z</time>
      </trkpt>
      <trkpt lat="48.0561" lon="7.02265">
        <ele>1240.0080566406</ele>
        <time>2018-02-16T16:02:55Z</time>
      </trkpt>
      <trkpt lat="48.05613" lon="7.02277">
        <ele>1240.0080566406</ele>
        <time>2018-02-16T16:03:03Z</time>
      </trkpt>
      <trkpt lat="48.05616" lon="7.02287">
        <ele>1244.0080566406</ele>
        <time>2018-02-16T16:03:10Z</time>
      </trkpt>
      <trkpt lat="48.05619" lon="7.02297">
        <ele>1240.0080566406</ele>
        <time>2018-02-16T16:03:21Z</time>
      </trkpt>
      <trkpt lat="48.05621" lon="7.02308">
        <ele>1241.0080566406</ele>
        <time>2018-02-16T16:03:37Z</time>
      </trkpt>
      <trkpt lat="48.0562" lon="7.02319">
        <ele>1244.0080566406</ele>
        <time>2018-02-16T16:03:47Z</time>
      </trkpt>
      <trkpt lat="48.05618" lon="7.0233">
        <ele>1244.0080566406</ele>
        <time>2018-02-16T16:03:59Z</time>
      </trkpt>
      <trkpt lat="48.05618" lon="7.02342">
        <ele>1244.0080566406</ele>
        <time>2018-02-16T16:04:10Z</time>
      </trkpt>
      <trkpt lat="48.05618" lon="7.02353">
        <ele>1241.0080566406</ele>
        <time>2018-02-16T16:04:18Z</time>
      </trkpt>
      <trkpt lat="48.05618" lon="7.02365">
        <ele>1240.0080566406</ele>
        <time>2018-02-16T16:04:26Z</time>
      </trkpt>
      <trkpt lat="48.05621" lon="7.02374">
        <ele>1242.0080566406</ele>
        <time>2018-02-16T16:04:49Z</time>
      </trkpt>
      <trkpt lat="48.05629" lon="7.02373">
        <ele>1244.0080566406</ele>
        <time>2018-02-16T16:05:04Z</time>
      </trkpt>
      <trkpt lat="48.05636" lon="7.02369">
        <ele>1242.0080566406</ele>
        <time>2018-02-16T16:05:12Z</time>
      </trkpt>
      <trkpt lat="48.05644" lon="7.02366">
        <ele>1241.0080566406</ele>
        <time>2018-02-16T16:05:22Z</time>
      </trkpt>
      <trkpt lat="48.05651" lon="7.02363">
        <ele>1238.0080566406</ele>
        <time>2018-02-16T16:05:29Z</time>
      </trkpt>
      <trkpt lat="48.05657" lon="7.02357">
        <ele>1234.0080566406</ele>
        <time>2018-02-16T16:05:37Z</time>
      </trkpt>
      <trkpt lat="48.05664" lon="7.02353">
        <ele>1232.0080566406</ele>
        <time>2018-02-16T16:05:44Z</time>
      </trkpt>
      <trkpt lat="48.05673" lon="7.02348">
        <ele>1228.0080566406</ele>
        <time>2018-02-16T16:05:51Z</time>
      </trkpt>
      <trkpt lat="48.0568" lon="7.02345">
        <ele>1229.0080566406</ele>
        <time>2018-02-16T16:05:57Z</time>
      </trkpt>
      <trkpt lat="48.05688" lon="7.02341">
        <ele>1232.0080566406</ele>
        <time>2018-02-16T16:06:02Z</time>
      </trkpt>
      <trkpt lat="48.05695" lon="7.02338">
        <ele>1233.0080566406</ele>
        <time>2018-02-16T16:06:08Z</time>
      </trkpt>
      <trkpt lat="48.05703" lon="7.02334">
        <ele>1233.0080566406</ele>
        <time>2018-02-16T16:06:14Z</time>
      </trkpt>
      <trkpt lat="48.0571" lon="7.02331">
        <ele>1233.0090332031</ele>
        <time>2018-02-16T16:06:20Z</time>
      </trkpt>
      <trkpt lat="48.05717" lon="7.02329">
        <ele>1234.0090332031</ele>
        <time>2018-02-16T16:06:25Z</time>
      </trkpt>
      <trkpt lat="48.05724" lon="7.02326">
        <ele>1232.0090332031</ele>
        <time>2018-02-16T16:06:30Z</time>
      </trkpt>
      <trkpt lat="48.05732" lon="7.02322">
        <ele>1232.0090332031</ele>
        <time>2018-02-16T16:06:36Z</time>
      </trkpt>
      <trkpt lat="48.05739" lon="7.02317">
        <ele>1229.0090332031</ele>
        <time>2018-02-16T16:06:41Z</time>
      </trkpt>
      <trkpt lat="48.05747" lon="7.02315">
        <ele>1227.0090332031</ele>
        <time>2018-02-16T16:06:47Z</time>
      </trkpt>
      <trkpt lat="48.05755" lon="7.02311">
        <ele>1229.0090332031</ele>
        <time>2018-02-16T16:06:52Z</time>
      </trkpt>
      <trkpt lat="48.05766" lon="7.02304">
        <ele>1228.0090332031</ele>
        <time>2018-02-16T16:07:28Z</time>
      </trkpt>
      <trkpt lat="48.05773" lon="7.023">
        <ele>1226.0090332031</ele>
        <time>2018-02-16T16:07:34Z</time>
      </trkpt>
      <trkpt lat="48.0578" lon="7.02295">
        <ele>1222.0090332031</ele>
        <time>2018-02-16T16:07:42Z</time>
      </trkpt>
      <trkpt lat="48.05787" lon="7.02292">
        <ele>1223.0090332031</ele>
        <time>2018-02-16T16:07:57Z</time>
      </trkpt>
      <trkpt lat="48.05794" lon="7.02289">
        <ele>1223.0090332031</ele>
        <time>2018-02-16T16:08:04Z</time>
      </trkpt>
      <trkpt lat="48.05801" lon="7.02283">
        <ele>1222.0090332031</ele>
        <time>2018-02-16T16:08:09Z</time>
      </trkpt>
      <trkpt lat="48.05814" lon="7.02273">
        <ele>1222.0090332031</ele>
        <time>2018-02-16T16:08:19Z</time>
      </trkpt>
      <trkpt lat="48.05821" lon="7.02276">
        <ele>1221.0090332031</ele>
        <time>2018-02-16T16:08:39Z</time>
      </trkpt>
      <trkpt lat="48.05829" lon="7.02278">
        <ele>1216.0090332031</ele>
        <time>2018-02-16T16:08:48Z</time>
      </trkpt>
      <trkpt lat="48.05837" lon="7.02281">
        <ele>1215.0090332031</ele>
        <time>2018-02-16T16:08:55Z</time>
      </trkpt>
      <trkpt lat="48.05844" lon="7.02283">
        <ele>1216.0090332031</ele>
        <time>2018-02-16T16:09:01Z</time>
      </trkpt>
      <trkpt lat="48.05851" lon="7.02288">
        <ele>1216.0090332031</ele>
        <time>2018-02-16T16:09:09Z</time>
      </trkpt>
      <trkpt lat="48.05856" lon="7.02296">
        <ele>1214.0090332031</ele>
        <time>2018-02-16T16:09:15Z</time>
      </trkpt>
      <trkpt lat="48.05878" lon="7.02315">
        <ele>1210.0090332031</ele>
        <time>2018-02-16T16:09:34Z</time>
      </trkpt>
      <trkpt lat="48.05886" lon="7.02316">
        <ele>1210.0090332031</ele>
        <time>2018-02-16T16:09:51Z</time>
      </trkpt>
      <trkpt lat="48.05893" lon="7.02314">
        <ele>1209.0090332031</ele>
        <time>2018-02-16T16:09:58Z</time>
      </trkpt>
      <trkpt lat="48.05901" lon="7.02311">
        <ele>1209.0090332031</ele>
        <time>2018-02-16T16:10:06Z</time>
      </trkpt>
      <trkpt lat="48.05908" lon="7.02315">
        <ele>1209.0090332031</ele>
        <time>2018-02-16T16:10:15Z</time>
      </trkpt>
      <trkpt lat="48.05914" lon="7.02324">
        <ele>1209.0090332031</ele>
        <time>2018-02-16T16:10:21Z</time>
      </trkpt>
      <trkpt lat="48.05915" lon="7.02335">
        <ele>1210.0090332031</ele>
        <time>2018-02-16T16:10:27Z</time>
      </trkpt>
      <trkpt lat="48.0592" lon="7.02344">
        <ele>1208.0090332031</ele>
        <time>2018-02-16T16:10:34Z</time>
      </trkpt>
      <trkpt lat="48.05927" lon="7.02349">
        <ele>1209.0090332031</ele>
        <time>2018-02-16T16:10:42Z</time>
      </trkpt>
      <trkpt lat="48.05935" lon="7.02351">
        <ele>1208.0090332031</ele>
        <time>2018-02-16T16:10:59Z</time>
      </trkpt>
      <trkpt lat="48.05942" lon="7.02356">
        <ele>1209.0090332031</ele>
        <time>2018-02-16T16:11:07Z</time>
      </trkpt>
      <trkpt lat="48.05949" lon="7.0236">
        <ele>1207.0090332031</ele>
        <time>2018-02-16T16:11:15Z</time>
      </trkpt>
      <trkpt lat="48.05957" lon="7.02361">
        <ele>1202.0090332031</ele>
        <time>2018-02-16T16:11:25Z</time>
      </trkpt>
      <trkpt lat="48.05964" lon="7.02366">
        <ele>1201.0090332031</ele>
        <time>2018-02-16T16:11:32Z</time>
      </trkpt>
      <trkpt lat="48.05971" lon="7.02368">
        <ele>1201.0090332031</ele>
        <time>2018-02-16T16:11:38Z</time>
      </trkpt>
      <trkpt lat="48.05978" lon="7.02372">
        <ele>1201.0090332031</ele>
        <time>2018-02-16T16:11:51Z</time>
      </trkpt>
      <trkpt lat="48.05985" lon="7.02375">
        <ele>1200.0090332031</ele>
        <time>2018-02-16T16:11:58Z</time>
      </trkpt>
      <trkpt lat="48.05993" lon="7.02377">
        <ele>1199.0090332031</ele>
        <time>2018-02-16T16:12:06Z</time>
      </trkpt>
      <trkpt lat="48.06001" lon="7.0238">
        <ele>1197.0090332031</ele>
        <time>2018-02-16T16:12:14Z</time>
      </trkpt>
      <trkpt lat="48.06008" lon="7.02383">
        <ele>1198.0090332031</ele>
        <time>2018-02-16T16:12:19Z</time>
      </trkpt>
      <trkpt lat="48.06015" lon="7.02386">
        <ele>1196.0090332031</ele>
        <time>2018-02-16T16:12:27Z</time>
      </trkpt>
      <trkpt lat="48.06024" lon="7.02389">
        <ele>1196.0090332031</ele>
        <time>2018-02-16T16:12:34Z</time>
      </trkpt>
      <trkpt lat="48.06032" lon="7.02393">
        <ele>1196.0090332031</ele>
        <time>2018-02-16T16:12:39Z</time>
      </trkpt>
      <trkpt lat="48.06038" lon="7.02398">
        <ele>1194.0090332031</ele>
        <time>2018-02-16T16:12:46Z</time>
      </trkpt>
      <trkpt lat="48.06046" lon="7.024">
        <ele>1195.0090332031</ele>
        <time>2018-02-16T16:12:53Z</time>
      </trkpt>
      <trkpt lat="48.06053" lon="7.02404">
        <ele>1193.0090332031</ele>
        <time>2018-02-16T16:13:05Z</time>
      </trkpt>
      <trkpt lat="48.06061" lon="7.02408">
        <ele>1194.0090332031</ele>
        <time>2018-02-16T16:13:13Z</time>
      </trkpt>
      <trkpt lat="48.06069" lon="7.02411">
        <ele>1192.0090332031</ele>
        <time>2018-02-16T16:13:21Z</time>
      </trkpt>
      <trkpt lat="48.06076" lon="7.02414">
        <ele>1193.0090332031</ele>
        <time>2018-02-16T16:13:28Z</time>
      </trkpt>
      <trkpt lat="48.06083" lon="7.02416">
        <ele>1192.0090332031</ele>
        <time>2018-02-16T16:13:37Z</time>
      </trkpt>
      <trkpt lat="48.06091" lon="7.02418">
        <ele>1194.0090332031</ele>
        <time>2018-02-16T16:13:42Z</time>
      </trkpt>
      <trkpt lat="48.06099" lon="7.0242">
        <ele>1192.0090332031</ele>
        <time>2018-02-16T16:13:49Z</time>
      </trkpt>
      <trkpt lat="48.06107" lon="7.02421">
        <ele>1191.0090332031</ele>
        <time>2018-02-16T16:13:55Z</time>
      </trkpt>
      <trkpt lat="48.06116" lon="7.02419">
        <ele>1189.0090332031</ele>
        <time>2018-02-16T16:14:02Z</time>
      </trkpt>
      <trkpt lat="48.06124" lon="7.02416">
        <ele>1186.0090332031</ele>
        <time>2018-02-16T16:14:09Z</time>
      </trkpt>
      <trkpt lat="48.0613" lon="7.0241">
        <ele>1182.0090332031</ele>
        <time>2018-02-16T16:14:15Z</time>
      </trkpt>
      <trkpt lat="48.06139" lon="7.02405">
        <ele>1180.0090332031</ele>
        <time>2018-02-16T16:14:22Z</time>
      </trkpt>
      <trkpt lat="48.06146" lon="7.02402">
        <ele>1179.0090332031</ele>
        <time>2018-02-16T16:14:27Z</time>
      </trkpt>
      <trkpt lat="48.06153" lon="7.02398">
        <ele>1178.0090332031</ele>
        <time>2018-02-16T16:14:32Z</time>
      </trkpt>
      <trkpt lat="48.0616" lon="7.02395">
        <ele>1177.0090332031</ele>
        <time>2018-02-16T16:14:38Z</time>
      </trkpt>
      <trkpt lat="48.06168" lon="7.02392">
        <ele>1173.0090332031</ele>
        <time>2018-02-16T16:14:45Z</time>
      </trkpt>
      <trkpt lat="48.06176" lon="7.02391">
        <ele>1172.0090332031</ele>
        <time>2018-02-16T16:14:54Z</time>
      </trkpt>
      <trkpt lat="48.06183" lon="7.02385">
        <ele>1172.0090332031</ele>
        <time>2018-02-16T16:15:13Z</time>
      </trkpt>
      <trkpt lat="48.06192" lon="7.02381">
        <ele>1172.0090332031</ele>
        <time>2018-02-16T16:15:18Z</time>
      </trkpt>
      <trkpt lat="48.06199" lon="7.02376">
        <ele>1172.0090332031</ele>
        <time>2018-02-16T16:15:24Z</time>
      </trkpt>
      <trkpt lat="48.06207" lon="7.02373">
        <ele>1171.0090332031</ele>
        <time>2018-02-16T16:15:37Z</time>
      </trkpt>
      <trkpt lat="48.06214" lon="7.02368">
        <ele>1169.0090332031</ele>
        <time>2018-02-16T16:15:43Z</time>
      </trkpt>
      <trkpt lat="48.06222" lon="7.02364">
        <ele>1168.0090332031</ele>
        <time>2018-02-16T16:15:49Z</time>
      </trkpt>
      <trkpt lat="48.0623" lon="7.02363">
        <ele>1168.0090332031</ele>
        <time>2018-02-16T16:15:53Z</time>
      </trkpt>
      <trkpt lat="48.06243" lon="7.02353">
        <ele>1167.0090332031</ele>
        <time>2018-02-16T16:16:05Z</time>
      </trkpt>
      <trkpt lat="48.06251" lon="7.02351">
        <ele>1166.0090332031</ele>
        <time>2018-02-16T16:16:11Z</time>
      </trkpt>
      <trkpt lat="48.06258" lon="7.02346">
        <ele>1162.0090332031</ele>
        <time>2018-02-16T16:16:19Z</time>
      </trkpt>
      <trkpt lat="48.06265" lon="7.02342">
        <ele>1161.0090332031</ele>
        <time>2018-02-16T16:16:26Z</time>
      </trkpt>
      <trkpt lat="48.06271" lon="7.02337">
        <ele>1162.0090332031</ele>
        <time>2018-02-16T16:16:32Z</time>
      </trkpt>
      <trkpt lat="48.06279" lon="7.02332">
        <ele>1162.0090332031</ele>
        <time>2018-02-16T16:16:39Z</time>
      </trkpt>
      <trkpt lat="48.06287" lon="7.02328">
        <ele>1160.0090332031</ele>
        <time>2018-02-16T16:16:45Z</time>
      </trkpt>
      <trkpt lat="48.06294" lon="7.02323">
        <ele>1158.0090332031</ele>
        <time>2018-02-16T16:16:51Z</time>
      </trkpt>
      <trkpt lat="48.06302" lon="7.02319">
        <ele>1158.0090332031</ele>
        <time>2018-02-16T16:16:56Z</time>
      </trkpt>
      <trkpt lat="48.0631" lon="7.02317">
        <ele>1152.0090332031</ele>
        <time>2018-02-16T16:17:03Z</time>
      </trkpt>
      <trkpt lat="48.06324" lon="7.02307">
        <ele>1151.0090332031</ele>
        <time>2018-02-16T16:17:13Z</time>
      </trkpt>
      <trkpt lat="48.06328" lon="7.02298">
        <ele>1150.0090332031</ele>
        <time>2018-02-16T16:17:21Z</time>
      </trkpt>
      <trkpt lat="48.0633" lon="7.02287">
        <ele>1148.0090332031</ele>
        <time>2018-02-16T16:17:27Z</time>
      </trkpt>
      <trkpt lat="48.0633" lon="7.02275">
        <ele>1147.0090332031</ele>
        <time>2018-02-16T16:17:42Z</time>
      </trkpt>
      <trkpt lat="48.06336" lon="7.02267">
        <ele>1143.0090332031</ele>
        <time>2018-02-16T16:18:29Z</time>
      </trkpt>
      <trkpt lat="48.06343" lon="7.02264">
        <ele>1144.0090332031</ele>
        <time>2018-02-16T16:18:44Z</time>
      </trkpt>
      <trkpt lat="48.06349" lon="7.02258">
        <ele>1146.0090332031</ele>
        <time>2018-02-16T16:18:55Z</time>
      </trkpt>
      <trkpt lat="48.06356" lon="7.02261">
        <ele>1144.0090332031</ele>
        <time>2018-02-16T16:19:02Z</time>
      </trkpt>
      <trkpt lat="48.06361" lon="7.02268">
        <ele>1142.0090332031</ele>
        <time>2018-02-16T16:19:44Z</time>
      </trkpt>
      <trkpt lat="48.06366" lon="7.02278">
        <ele>1140.0090332031</ele>
        <time>2018-02-16T16:19:53Z</time>
      </trkpt>
      <trkpt lat="48.0637" lon="7.02288">
        <ele>1139.0090332031</ele>
        <time>2018-02-16T16:19:59Z</time>
      </trkpt>
      <trkpt lat="48.06372" lon="7.023">
        <ele>1139.0090332031</ele>
        <time>2018-02-16T16:20:05Z</time>
      </trkpt>
      <trkpt lat="48.06371" lon="7.02311">
        <ele>1141.0090332031</ele>
        <time>2018-02-16T16:20:11Z</time>
      </trkpt>
      <trkpt lat="48.0637" lon="7.02324">
        <ele>1140.0090332031</ele>
        <time>2018-02-16T16:20:18Z</time>
      </trkpt>
      <trkpt lat="48.06368" lon="7.02335">
        <ele>1139.0090332031</ele>
        <time>2018-02-16T16:20:24Z</time>
      </trkpt>
      <trkpt lat="48.0637" lon="7.02346">
        <ele>1139.0090332031</ele>
        <time>2018-02-16T16:20:30Z</time>
      </trkpt>
      <trkpt lat="48.06374" lon="7.02356">
        <ele>1140.0090332031</ele>
        <time>2018-02-16T16:20:36Z</time>
      </trkpt>
    </trkseg>
  </trk>
</gpx>